Time,TemperatureF,DewpointF,PressureIn,WindDirection,WindDirectionDegrees,WindSpeedMPH,WindSpeedGustMPH,Humidity,HourlyPrecipIn,Conditions,Clouds,dailyrainin,SoftwareType,DateUTC
2013-10-04 00:00:00,77.7,73.5,29.98,ENE,75,1.0,3.0,87,0.00,,FEW070,0.00,VWS V14.01,2013-10-04 04:00:00,
2013-10-04 00:05:00,77.6,73.4,29.99,ENE,67,1.0,3.0,87,0.00,,CLR,0.00,VWS V14.01,2013-10-04 04:05:00,
2013-10-04 00:10:00,77.6,73.4,29.98,ENE,75,2.0,2.0,87,0.00,,CLR,0.00,VWS V14.01,2013-10-04 04:10:00,
2013-10-04 00:15:00,77.6,73.4,29.99,East,94,3.0,3.0,87,0.00,,CLR,0.00,VWS V14.01,2013-10-04 04:15:00,
2013-10-04 00:20:00,77.6,73.4,29.99,ESE,103,1.0,3.0,87,0.00,,CLR,0.00,VWS V14.01,2013-10-04 04:20:00,
2013-10-04 00:25:00,77.6,73.1,29.99,ENE,75,4.0,4.0,86,0.00,,CLR,0.00,VWS V14.01,2013-10-04 04:25:00,
2013-10-04 00:30:00,77.6,73.1,29.99,ESE,108,1.0,4.0,86,0.00,,CLR,0.00,VWS V14.01,2013-10-04 04:30:00,
2013-10-04 00:31:00,77.6,73.1,29.99,ESE,109,1.0,1.0,86,0.00,,CLR,0.00,VWS V14.01,2013-10-04 04:31:00,
2013-10-04 00:32:00,77.6,73.1,29.99,East,97,2.0,2.0,86,0.00,,CLR,0.00,VWS V14.01,2013-10-04 04:32:00,
2013-10-04 00:34:00,77.6,73.1,29.99,East,94,3.0,3.0,86,0.00,,CLR,0.00,VWS V14.01,2013-10-04 04:34:00,
2013-10-04 00:35:00,77.5,73.0,29.99,ENE,77,2.0,3.0,86,0.00,,CLR,0.00,VWS V14.01,2013-10-04 04:35:00,
2013-10-04 00:37:00,77.5,73.0,29.99,ENE,68,3.0,3.0,86,0.00,,CLR,0.00,VWS V14.01,2013-10-04 04:37:00,
2013-10-04 00:38:00,77.5,73.0,29.99,East,86,2.0,3.0,86,0.00,,CLR,0.00,VWS V14.01,2013-10-04 04:38:00,
2013-10-04 00:40:00,77.5,73.3,29.99,East,86,3.0,3.0,87,0.00,,CLR,0.00,VWS V14.01,2013-10-04 04:40:00,
2013-10-04 00:42:00,77.4,73.2,29.99,ENE,72,2.0,3.0,87,0.00,,CLR,0.00,VWS V14.01,2013-10-04 04:42:00,
2013-10-04 00:43:00,77.4,73.2,29.99,East,80,3.0,3.0,87,0.00,,CLR,0.00,VWS V14.01,2013-10-04 04:43:00,
2013-10-04 00:44:00,77.4,73.2,29.99,East,82,3.0,4.0,87,0.00,,CLR,0.00,VWS V14.01,2013-10-04 04:44:00,
2013-10-04 00:45:00,77.3,73.1,29.98,ENE,68,5.0,5.0,87,0.00,,CLR,0.00,VWS V14.01,2013-10-04 04:45:00,
2013-10-04 00:46:00,77.3,73.1,29.98,East,84,5.0,5.0,87,0.00,,CLR,0.00,VWS V14.01,2013-10-04 04:46:00,
2013-10-04 00:49:00,77.2,73.0,29.99,ENE,72,4.0,6.0,87,0.00,,CLR,0.00,VWS V14.01,2013-10-04 04:49:00,
2013-10-04 00:50:00,77.2,73.0,29.99,ENE,71,3.0,6.0,87,0.00,,CLR,0.00,VWS V14.01,2013-10-04 04:50:00,
2013-10-04 00:51:00,77.2,73.0,29.99,ENE,69,2.0,2.0,87,0.00,,CLR,0.00,VWS V14.01,2013-10-04 04:51:00,
2013-10-04 00:52:00,77.2,73.0,29.99,East,84,3.0,3.0,87,0.00,,CLR,0.00,VWS V14.01,2013-10-04 04:52:00,
2013-10-04 00:54:00,77.1,72.9,29.99,ENE,77,8.0,10.0,87,0.00,,CLR,0.00,VWS V14.01,2013-10-04 04:54:00,
2013-10-04 00:55:00,77.1,72.9,29.98,ENE,72,4.0,10.0,87,0.00,,CLR,0.00,VWS V14.01,2013-10-04 04:55:00,
2013-10-04 00:56:00,77.1,72.9,29.99,ENE,77,6.0,7.0,87,0.00,,CLR,0.00,VWS V14.01,2013-10-04 04:56:00,
2013-10-04 00:57:00,77.0,72.8,29.98,ENE,60,2.0,7.0,87,0.00,,CLR,0.00,VWS V14.01,2013-10-04 04:57:00,
2013-10-04 00:59:00,77.0,73.2,29.98,East,80,5.0,7.0,88,0.00,,CLR,0.00,VWS V14.01,2013-10-04 04:59:00,
2013-10-04 01:00:00,76.9,73.1,29.98,ENE,69,2.0,7.0,88,0.00,,FEW041,0.00,VWS V14.01,2013-10-04 05:00:00,
2013-10-04 01:01:00,76.9,73.1,29.98,East,88,3.0,7.0,88,0.00,,FEW041,0.00,VWS V14.01,2013-10-04 05:01:00,
2013-10-04 01:02:00,76.9,73.1,29.98,ENE,78,2.0,4.0,88,0.00,,FEW041,0.00,VWS V14.01,2013-10-04 05:02:00,
2013-10-04 01:05:00,76.8,73.0,29.98,East,82,3.0,6.0,88,0.00,,CLR,0.00,VWS V14.01,2013-10-04 05:05:00,
2013-10-04 01:06:00,76.8,73.0,29.98,ENE,69,2.0,6.0,88,0.00,,FEW041,0.00,VWS V14.01,2013-10-04 05:06:00,
2013-10-04 01:07:00,76.8,73.0,29.98,ENE,68,3.0,4.0,88,0.00,,FEW041,0.00,VWS V14.01,2013-10-04 05:07:00,
2013-10-04 01:08:00,76.8,73.0,29.98,ENE,78,2.0,4.0,88,0.00,,FEW041,0.00,VWS V14.01,2013-10-04 05:08:00,
2013-10-04 01:10:00,76.8,73.0,29.98,East,81,4.0,6.0,88,0.00,,CLR,0.00,VWS V14.01,2013-10-04 05:10:00,
2013-10-04 01:11:00,76.8,73.0,29.98,East,81,4.0,5.0,88,0.00,,FEW041,0.00,VWS V14.01,2013-10-04 05:11:00,
2013-10-04 01:12:00,76.8,73.0,29.98,East,89,3.0,5.0,88,0.00,,FEW041,0.00,VWS V14.01,2013-10-04 05:12:00,
2013-10-04 01:13:00,76.7,72.9,29.98,ENE,68,1.0,5.0,88,0.00,,FEW041,0.00,VWS V14.01,2013-10-04 05:13:00,
2013-10-04 01:14:00,76.8,73.0,29.98,NNE,33,3.0,5.0,88,0.00,,FEW041,0.00,VWS V14.01,2013-10-04 05:14:00,
2013-10-04 01:15:00,76.7,72.9,29.98,ENE,70,2.0,5.0,88,0.00,,CLR,0.00,VWS V14.01,2013-10-04 05:15:00,
2013-10-04 01:16:00,76.7,72.9,29.98,ENE,70,2.0,5.0,88,0.00,,FEW041,0.00,VWS V14.01,2013-10-04 05:16:00,
2013-10-04 01:18:00,76.7,72.9,29.98,East,89,2.0,4.0,88,0.00,,FEW041,0.00,VWS V14.01,2013-10-04 05:18:00,
2013-10-04 01:19:00,76.7,72.9,29.98,ENE,78,3.0,4.0,88,0.00,,FEW041,0.00,VWS V14.01,2013-10-04 05:19:00,
2013-10-04 01:20:00,76.7,72.9,29.98,East,91,2.0,4.0,88,0.00,,FEW041,0.00,VWS V14.01,2013-10-04 05:20:00,
2013-10-04 01:22:00,76.7,72.9,29.98,ENE,63,2.0,3.0,88,0.00,,FEW041,0.00,VWS V14.01,2013-10-04 05:22:00,
2013-10-04 01:23:00,76.7,72.9,29.98,ENE,63,2.0,3.0,88,0.00,,FEW041,0.00,VWS V14.01,2013-10-04 05:23:00,
2013-10-04 01:24:00,76.7,72.9,29.98,NE,47,2.0,3.0,88,0.00,,FEW041,0.00,VWS V14.01,2013-10-04 05:24:00,
2013-10-04 01:25:00,76.7,72.9,29.98,ENE,77,0.0,4.0,88,0.00,,FEW041,0.00,VWS V14.01,2013-10-04 05:25:00,
2013-10-04 01:26:00,76.7,72.9,29.98,ENE,76,1.0,2.0,88,0.00,,FEW041,0.00,VWS V14.01,2013-10-04 05:26:00,
2013-10-04 01:28:00,76.7,72.9,29.98,ENE,65,2.0,2.0,88,0.00,,FEW041,0.00,VWS V14.01,2013-10-04 05:28:00,
2013-10-04 01:29:00,76.7,72.9,29.98,ENE,66,2.0,3.0,88,0.00,,FEW041,0.00,VWS V14.01,2013-10-04 05:29:00,
2013-10-04 01:30:00,76.7,72.9,29.98,ENE,65,2.0,3.0,88,0.00,,FEW041,0.00,VWS V14.01,2013-10-04 05:30:00,
2013-10-04 01:31:00,76.7,72.9,29.98,ENE,65,1.0,2.0,88,0.00,,FEW041,0.00,VWS V14.01,2013-10-04 05:31:00,
2013-10-04 01:32:00,76.7,72.9,29.98,East,84,1.0,2.0,88,0.00,,FEW041,0.00,VWS V14.01,2013-10-04 05:32:00,
2013-10-04 01:33:00,76.7,72.9,29.98,ENE,62,3.0,3.0,88,0.00,,FEW041,0.00,VWS V14.01,2013-10-04 05:33:00,
2013-10-04 01:34:00,76.6,72.8,29.98,East,87,4.0,4.0,88,0.00,,FEW041,0.00,VWS V14.01,2013-10-04 05:34:00,
2013-10-04 01:35:00,76.7,72.9,29.98,ENE,70,2.0,4.0,88,0.00,,CLR,0.00,VWS V14.01,2013-10-04 05:35:00,
2013-10-04 01:36:00,76.7,72.9,29.98,ENE,69,2.0,2.0,88,0.00,,FEW041,0.00,VWS V14.01,2013-10-04 05:36:00,
2013-10-04 01:37:00,76.7,72.9,29.98,NE,55,2.0,5.0,88,0.00,,FEW041,0.00,VWS V14.01,2013-10-04 05:37:00,
2013-10-04 01:38:00,76.7,72.9,29.98,East,79,2.0,5.0,88,0.00,,FEW041,0.00,VWS V14.01,2013-10-04 05:38:00,
2013-10-04 01:39:00,76.7,72.9,29.98,East,81,1.0,5.0,88,0.00,,FEW041,0.00,VWS V14.01,2013-10-04 05:39:00,
2013-10-04 01:40:00,76.7,72.9,29.98,ENE,69,3.0,5.0,88,0.00,,CLR,0.00,VWS V14.01,2013-10-04 05:40:00,
2013-10-04 01:41:00,76.7,72.9,29.98,East,79,3.0,3.0,88,0.00,,FEW041,0.00,VWS V14.01,2013-10-04 05:41:00,
2013-10-04 01:42:00,76.7,72.9,29.98,East,84,3.0,3.0,88,0.00,,FEW041,0.00,VWS V14.01,2013-10-04 05:42:00,
2013-10-04 01:43:00,76.7,72.9,29.98,East,79,2.0,3.0,88,0.00,,FEW041,0.00,VWS V14.01,2013-10-04 05:43:00,
2013-10-04 01:44:00,76.7,72.9,29.98,East,96,3.0,3.0,88,0.00,,FEW041,0.00,VWS V14.01,2013-10-04 05:44:00,
2013-10-04 01:45:00,76.7,72.9,29.98,East,96,2.0,3.0,88,0.00,,FEW041,0.00,VWS V14.01,2013-10-04 05:45:00,
2013-10-04 01:46:00,76.7,72.9,29.98,ENE,77,2.0,4.0,88,0.00,,FEW041,0.00,VWS V14.01,2013-10-04 05:46:00,
2013-10-04 01:47:00,76.7,72.9,29.98,ENE,77,2.0,4.0,88,0.00,,FEW041,0.00,VWS V14.01,2013-10-04 05:47:00,
2013-10-04 01:48:00,76.7,72.9,29.98,East,89,1.0,4.0,88,0.00,,FEW041,0.00,VWS V14.01,2013-10-04 05:48:00,
2013-10-04 01:50:00,76.7,72.9,29.98,East,101,1.0,4.0,88,0.00,,FEW041,0.00,VWS V14.01,2013-10-04 05:50:00,
2013-10-04 01:51:00,76.7,72.9,29.98,East,81,2.0,3.0,88,0.00,,FEW041,0.00,VWS V14.01,2013-10-04 05:51:00,
2013-10-04 01:52:00,76.7,72.9,29.98,East,79,2.0,3.0,88,0.00,,FEW041,0.00,VWS V14.01,2013-10-04 05:52:00,
2013-10-04 01:53:00,76.7,72.9,29.98,East,86,3.0,3.0,88,0.00,,FEW041,0.00,VWS V14.01,2013-10-04 05:53:00,
2013-10-04 01:55:00,76.7,72.9,29.98,ENE,75,1.0,4.0,88,0.00,,FEW041,0.00,VWS V14.01,2013-10-04 05:55:00,
2013-10-04 01:57:00,76.7,72.9,29.98,ENE,78,1.0,3.0,88,0.00,,FEW041,0.00,VWS V14.01,2013-10-04 05:57:00,
2013-10-04 01:58:00,76.6,72.8,29.98,ENE,70,2.0,4.0,88,0.00,,FEW041,0.00,VWS V14.01,2013-10-04 05:58:00,
2013-10-04 02:00:00,76.6,72.8,29.97,East,86,2.0,4.0,88,0.00,,FEW041,0.00,VWS V14.01,2013-10-04 06:00:00,
2013-10-04 02:02:00,76.6,72.8,29.98,East,87,2.0,4.0,88,0.00,,CLR,0.00,VWS V14.01,2013-10-04 06:02:00,
2013-10-04 02:03:00,76.6,72.8,29.98,East,81,3.0,4.0,88,0.00,,CLR,0.00,VWS V14.01,2013-10-04 06:03:00,
2013-10-04 02:05:00,76.6,72.8,29.97,ESE,118,0.0,4.0,88,0.00,,CLR,0.00,VWS V14.01,2013-10-04 06:05:00,
2013-10-04 02:07:00,76.6,72.4,29.97,ESE,103,1.0,2.0,87,0.00,,CLR,0.00,VWS V14.01,2013-10-04 06:07:00,
2013-10-04 02:08:00,76.6,72.4,29.97,East,90,1.0,2.0,87,0.00,,CLR,0.00,VWS V14.01,2013-10-04 06:08:00,
2013-10-04 02:09:00,76.6,72.8,29.97,East,86,1.0,2.0,88,0.00,,CLR,0.00,VWS V14.01,2013-10-04 06:09:00,
2013-10-04 02:10:00,76.6,72.8,29.97,East,82,2.0,3.0,88,0.00,,CLR,0.00,VWS V14.01,2013-10-04 06:10:00,
2013-10-04 02:11:00,76.6,72.8,29.97,East,81,2.0,3.0,88,0.00,,CLR,0.00,VWS V14.01,2013-10-04 06:11:00,
2013-10-04 02:12:00,76.5,72.7,29.97,ENE,75,3.0,3.0,88,0.00,,CLR,0.00,VWS V14.01,2013-10-04 06:12:00,
2013-10-04 02:13:00,76.5,72.7,29.97,ENE,78,2.0,4.0,88,0.00,,CLR,0.00,VWS V14.01,2013-10-04 06:13:00,
2013-10-04 02:14:00,76.5,72.7,29.97,East,85,3.0,4.0,88,0.00,,CLR,0.00,VWS V14.01,2013-10-04 06:14:00,
2013-10-04 02:15:00,76.5,72.7,29.97,ENE,72,2.0,4.0,88,0.00,,CLR,0.00,VWS V14.01,2013-10-04 06:15:00,
2013-10-04 02:16:00,76.5,72.7,29.97,ENE,72,2.0,4.0,88,0.00,,CLR,0.00,VWS V14.01,2013-10-04 06:16:00,
2013-10-04 02:17:00,76.4,72.6,29.97,East,82,2.0,3.0,88,0.00,,CLR,0.00,VWS V14.01,2013-10-04 06:17:00,
2013-10-04 02:18:00,76.4,72.6,29.97,ESE,105,1.0,3.0,88,0.00,,CLR,0.00,VWS V14.01,2013-10-04 06:18:00,
2013-10-04 02:19:00,76.4,72.6,29.97,ENE,68,3.0,3.0,88,0.00,,CLR,0.00,VWS V14.01,2013-10-04 06:19:00,
2013-10-04 02:20:00,76.4,72.6,29.97,ENE,77,2.0,3.0,88,0.00,,CLR,0.00,VWS V14.01,2013-10-04 06:20:00,
2013-10-04 02:21:00,76.4,72.6,29.97,East,97,2.0,2.0,88,0.00,,CLR,0.00,VWS V14.01,2013-10-04 06:21:00,
2013-10-04 02:22:00,76.4,72.6,29.97,East,80,1.0,2.0,88,0.00,,CLR,0.00,VWS V14.01,2013-10-04 06:22:00,
2013-10-04 02:23:00,76.4,72.6,29.97,East,89,2.0,2.0,88,0.00,,CLR,0.00,VWS V14.01,2013-10-04 06:23:00,
2013-10-04 02:24:00,76.4,72.6,29.97,East,84,1.0,3.0,88,0.00,,CLR,0.00,VWS V14.01,2013-10-04 06:24:00,
2013-10-04 02:25:00,76.4,72.6,29.97,East,84,3.0,4.0,88,0.00,,CLR,0.00,VWS V14.01,2013-10-04 06:25:00,
2013-10-04 02:26:00,76.4,72.6,29.97,ENE,63,3.0,3.0,88,0.00,,CLR,0.00,VWS V14.01,2013-10-04 06:26:00,
2013-10-04 02:27:00,76.4,72.6,29.97,ENE,70,2.0,4.0,88,0.00,,CLR,0.00,VWS V14.01,2013-10-04 06:27:00,
2013-10-04 02:29:00,76.3,72.5,29.96,ENE,71,2.0,4.0,88,0.00,,CLR,0.00,VWS V14.01,2013-10-04 06:29:00,
2013-10-04 02:30:00,76.4,72.6,29.96,ENE,62,3.0,5.0,88,0.00,,CLR,0.00,VWS V14.01,2013-10-04 06:30:00,
2013-10-04 02:31:00,76.4,72.6,29.96,ENE,63,2.0,3.0,88,0.00,,CLR,0.00,VWS V14.01,2013-10-04 06:31:00,
2013-10-04 02:32:00,76.3,72.5,29.96,East,81,2.0,3.0,88,0.00,,CLR,0.00,VWS V14.01,2013-10-04 06:32:00,
2013-10-04 02:34:00,76.3,72.5,29.96,East,88,2.0,4.0,88,0.00,,CLR,0.00,VWS V14.01,2013-10-04 06:34:00,
2013-10-04 02:35:00,76.3,72.5,29.96,East,79,2.0,4.0,88,0.00,,CLR,0.00,VWS V14.01,2013-10-04 06:35:00,
2013-10-04 02:36:00,76.3,72.5,29.96,East,95,2.0,3.0,88,0.00,,CLR,0.00,VWS V14.01,2013-10-04 06:36:00,
2013-10-04 02:37:00,76.3,72.5,29.96,ESE,105,1.0,3.0,88,0.00,,CLR,0.00,VWS V14.01,2013-10-04 06:37:00,
2013-10-04 02:38:00,76.3,72.5,29.96,East,81,2.0,3.0,88,0.00,,CLR,0.00,VWS V14.01,2013-10-04 06:38:00,
2013-10-04 02:39:00,76.3,72.5,29.96,East,79,3.0,5.0,88,0.00,,CLR,0.00,VWS V14.01,2013-10-04 06:39:00,
2013-10-04 02:40:00,76.3,72.5,29.96,ENE,75,2.0,5.0,88,0.00,,CLR,0.00,VWS V14.01,2013-10-04 06:40:00,
2013-10-04 02:41:00,76.3,72.5,29.96,East,97,2.0,3.0,88,0.00,,CLR,0.00,VWS V14.01,2013-10-04 06:41:00,
2013-10-04 02:42:00,76.2,72.4,29.96,East,79,2.0,4.0,88,0.00,,CLR,0.00,VWS V14.01,2013-10-04 06:42:00,
2013-10-04 02:43:00,76.2,72.4,29.96,East,97,2.0,4.0,88,0.00,,CLR,0.00,VWS V14.01,2013-10-04 06:43:00,
2013-10-04 02:45:00,76.2,72.4,29.96,East,85,2.0,4.0,88,0.00,,CLR,0.00,VWS V14.01,2013-10-04 06:45:00,
2013-10-04 02:46:00,76.2,72.4,29.96,ENE,75,2.0,3.0,88,0.00,,CLR,0.00,VWS V14.01,2013-10-04 06:46:00,
2013-10-04 02:47:00,76.2,72.4,29.96,East,86,0.0,3.0,88,0.00,,CLR,0.00,VWS V14.01,2013-10-04 06:47:00,
2013-10-04 02:48:00,76.2,72.4,29.96,East,86,1.0,3.0,88,0.00,,CLR,0.00,VWS V14.01,2013-10-04 06:48:00,
2013-10-04 02:50:00,76.1,72.6,29.96,East,101,2.0,3.0,89,0.00,,CLR,0.00,VWS V14.01,2013-10-04 06:50:00,
2013-10-04 02:51:00,76.1,72.6,29.96,ENE,69,3.0,3.0,89,0.00,,CLR,0.00,VWS V14.01,2013-10-04 06:51:00,
2013-10-04 02:53:00,76.1,72.6,29.96,ESE,103,2.0,3.0,89,0.00,,CLR,0.00,VWS V14.01,2013-10-04 06:53:00,
2013-10-04 02:55:00,76.0,72.5,29.95,East,85,2.0,3.0,89,0.00,,CLR,0.00,VWS V14.01,2013-10-04 06:55:00,
2013-10-04 02:56:00,76.0,72.5,29.96,ENE,77,3.0,4.0,89,0.00,,CLR,0.00,VWS V14.01,2013-10-04 06:56:00,
2013-10-04 02:58:00,76.0,72.5,29.95,ENE,65,2.0,4.0,89,0.00,,CLR,0.00,VWS V14.01,2013-10-04 06:58:00,
2013-10-04 03:00:00,75.9,72.4,29.96,East,82,3.0,4.0,89,0.00,,CLR,0.00,VWS V14.01,2013-10-04 07:00:00,
2013-10-04 03:01:00,76.0,72.5,29.96,East,94,3.0,4.0,89,0.00,,CLR,0.00,VWS V14.01,2013-10-04 07:01:00,
2013-10-04 03:03:00,76.0,72.5,29.96,East,101,2.0,3.0,89,0.00,,CLR,0.00,VWS V14.01,2013-10-04 07:03:00,
2013-10-04 03:04:00,76.0,72.5,29.96,East,90,2.0,3.0,89,0.00,,CLR,0.00,VWS V14.01,2013-10-04 07:04:00,
2013-10-04 03:05:00,76.0,72.5,29.96,East,82,2.0,4.0,89,0.00,,CLR,0.00,VWS V14.01,2013-10-04 07:05:00,
2013-10-04 03:06:00,76.0,72.5,29.96,East,82,2.0,4.0,89,0.00,,CLR,0.00,VWS V14.01,2013-10-04 07:06:00,
2013-10-04 03:08:00,76.0,72.5,29.96,East,82,1.0,2.0,89,0.00,,CLR,0.00,VWS V14.01,2013-10-04 07:08:00,
2013-10-04 03:09:00,76.0,72.5,29.96,East,83,1.0,2.0,89,0.00,,CLR,0.00,VWS V14.01,2013-10-04 07:09:00,
2013-10-04 03:10:00,75.9,72.4,29.96,ESE,103,1.0,2.0,89,0.00,,CLR,0.00,VWS V14.01,2013-10-04 07:10:00,
2013-10-04 03:11:00,75.9,72.4,29.96,ESE,103,1.0,1.0,89,0.00,,CLR,0.00,VWS V14.01,2013-10-04 07:11:00,
2013-10-04 03:12:00,75.9,72.4,29.96,East,98,1.0,2.0,89,0.00,,CLR,0.00,VWS V14.01,2013-10-04 07:12:00,
2013-10-04 03:13:00,75.9,72.4,29.96,East,82,1.0,2.0,89,0.00,,CLR,0.00,VWS V14.01,2013-10-04 07:13:00,
2013-10-04 03:14:00,75.9,72.4,29.96,ENE,66,3.0,4.0,89,0.00,,CLR,0.00,VWS V14.01,2013-10-04 07:14:00,
2013-10-04 03:15:00,75.9,72.4,29.96,ENE,77,2.0,4.0,89,0.00,,CLR,0.00,VWS V14.01,2013-10-04 07:15:00,
2013-10-04 03:16:00,75.9,72.4,29.96,ENE,78,1.0,1.0,89,0.00,,CLR,0.00,VWS V14.01,2013-10-04 07:16:00,
2013-10-04 03:17:00,75.9,72.4,29.96,ENE,77,0.0,1.0,89,0.00,,CLR,0.00,VWS V14.01,2013-10-04 07:17:00,
2013-10-04 03:18:00,75.9,72.4,29.96,East,81,4.0,4.0,89,0.00,,CLR,0.00,VWS V14.01,2013-10-04 07:18:00,
2013-10-04 03:19:00,75.9,72.4,29.96,ENE,77,3.0,4.0,89,0.00,,CLR,0.00,VWS V14.01,2013-10-04 07:19:00,
2013-10-04 03:20:00,75.9,72.8,29.96,ENE,74,1.0,4.0,90,0.00,,CLR,0.00,VWS V14.01,2013-10-04 07:20:00,
2013-10-04 03:21:00,75.9,72.8,29.96,ENE,72,2.0,2.0,90,0.00,,CLR,0.00,VWS V14.01,2013-10-04 07:21:00,
2013-10-04 03:22:00,75.9,72.8,29.96,ENE,75,2.0,3.0,90,0.00,,CLR,0.00,VWS V14.01,2013-10-04 07:22:00,
2013-10-04 03:23:00,75.8,72.7,29.96,NE,39,2.0,3.0,90,0.00,,CLR,0.00,VWS V14.01,2013-10-04 07:23:00,
2013-10-04 03:24:00,75.8,72.7,29.96,ENE,72,2.0,3.0,90,0.00,,CLR,0.00,VWS V14.01,2013-10-04 07:24:00,
2013-10-04 03:25:00,75.8,72.7,29.96,ENE,66,2.0,4.0,90,0.00,,CLR,0.00,VWS V14.01,2013-10-04 07:25:00,
2013-10-04 03:26:00,75.8,72.7,29.96,East,81,2.0,2.0,90,0.00,,CLR,0.00,VWS V14.01,2013-10-04 07:26:00,
2013-10-04 03:27:00,75.8,72.7,29.96,ENE,75,2.0,2.0,90,0.00,,CLR,0.00,VWS V14.01,2013-10-04 07:27:00,
2013-10-04 03:29:00,75.8,72.7,29.96,ENE,72,2.0,3.0,90,0.00,,CLR,0.00,VWS V14.01,2013-10-04 07:29:00,
2013-10-04 03:30:00,75.7,72.6,29.96,ENE,73,1.0,3.0,90,0.00,,CLR,0.00,VWS V14.01,2013-10-04 07:30:00,
2013-10-04 03:32:00,75.7,72.6,29.95,NE,53,2.0,3.0,90,0.00,,CLR,0.00,VWS V14.01,2013-10-04 07:32:00,
2013-10-04 03:34:00,75.7,72.6,29.96,ENE,63,3.0,3.0,90,0.00,,CLR,0.00,VWS V14.01,2013-10-04 07:34:00,
2013-10-04 03:35:00,75.7,72.6,29.95,ENE,64,1.0,3.0,90,0.00,,CLR,0.00,VWS V14.01,2013-10-04 07:35:00,
2013-10-04 03:37:00,75.6,72.5,29.96,ENE,78,3.0,3.0,90,0.00,,CLR,0.00,VWS V14.01,2013-10-04 07:37:00,
2013-10-04 03:38:00,75.6,72.5,29.96,ENE,78,1.0,3.0,90,0.00,,CLR,0.00,VWS V14.01,2013-10-04 07:38:00,
2013-10-04 03:39:00,75.6,72.5,29.95,ENE,78,1.0,3.0,90,0.00,,CLR,0.00,VWS V14.01,2013-10-04 07:39:00,
2013-10-04 03:40:00,75.6,72.5,29.95,East,82,2.0,3.0,90,0.00,,CLR,0.00,VWS V14.01,2013-10-04 07:40:00,
2013-10-04 03:41:00,75.6,72.5,29.95,ENE,72,3.0,3.0,90,0.00,,CLR,0.00,VWS V14.01,2013-10-04 07:41:00,
2013-10-04 03:42:00,75.5,72.4,29.95,ENE,71,3.0,4.0,90,0.00,,CLR,0.00,VWS V14.01,2013-10-04 07:42:00,
2013-10-04 03:43:00,75.5,72.4,29.95,ENE,77,3.0,4.0,90,0.00,,CLR,0.00,VWS V14.01,2013-10-04 07:43:00,
2013-10-04 03:44:00,75.5,72.4,29.95,ENE,68,1.0,4.0,90,0.00,,CLR,0.00,VWS V14.01,2013-10-04 07:44:00,
2013-10-04 03:45:00,75.5,72.4,29.95,East,81,3.0,4.0,90,0.00,,CLR,0.00,VWS V14.01,2013-10-04 07:45:00,
2013-10-04 03:46:00,75.5,72.4,29.95,East,82,1.0,4.0,90,0.00,,CLR,0.00,VWS V14.01,2013-10-04 07:46:00,
2013-10-04 03:48:00,75.5,72.4,29.95,ENE,77,2.0,3.0,90,0.00,,CLR,0.00,VWS V14.01,2013-10-04 07:48:00,
2013-10-04 03:50:00,75.5,72.4,29.95,ENE,68,2.0,5.0,90,0.00,,CLR,0.00,VWS V14.01,2013-10-04 07:50:00,
2013-10-04 03:55:00,75.5,72.4,29.95,ENE,68,2.0,5.0,90,0.00,,CLR,0.00,VWS V14.01,2013-10-04 07:55:00,
2013-10-04 04:00:00,75.5,72.4,29.95,ENE,68,2.0,4.0,90,0.00,,CLR,0.00,VWS V14.01,2013-10-04 08:00:00,
2013-10-04 04:05:00,75.5,72.4,29.95,ENE,68,2.0,3.0,90,0.00,,CLR,0.00,VWS V14.01,2013-10-04 08:05:00,
2013-10-04 04:10:00,75.5,72.4,29.95,ENE,68,2.0,4.0,90,0.00,,CLR,0.00,VWS V14.01,2013-10-04 08:10:00,
2013-10-04 04:15:00,75.6,72.5,29.95,East,90,2.0,4.0,90,0.00,,CLR,0.00,VWS V14.01,2013-10-04 08:15:00,
2013-10-04 04:20:00,75.6,72.5,29.95,East,90,2.0,4.0,90,0.00,,CLR,0.00,VWS V14.01,2013-10-04 08:20:00,
2013-10-04 04:25:00,75.6,72.5,29.95,ENE,68,3.0,5.0,90,0.00,,CLR,0.00,VWS V14.01,2013-10-04 08:25:00,
2013-10-04 04:30:00,75.6,72.5,29.95,East,90,2.0,5.0,90,0.00,,CLR,0.00,VWS V14.01,2013-10-04 08:30:00,
2013-10-04 04:35:00,75.5,72.7,29.95,East,90,2.0,4.0,91,0.00,,CLR,0.00,VWS V14.01,2013-10-04 08:35:00,
2013-10-04 04:40:00,75.5,72.7,29.95,ENE,68,2.0,4.0,91,0.00,,CLR,0.00,VWS V14.01,2013-10-04 08:40:00,
2013-10-04 04:45:00,75.5,72.7,29.95,East,90,2.0,4.0,91,0.00,,CLR,0.00,VWS V14.01,2013-10-04 08:45:00,
2013-10-04 04:50:00,75.5,72.7,29.95,East,90,2.0,4.0,91,0.00,,CLR,0.00,VWS V14.01,2013-10-04 08:50:00,
2013-10-04 04:55:00,75.5,72.7,29.95,ENE,68,3.0,5.0,91,0.00,,CLR,0.00,VWS V14.01,2013-10-04 08:55:00,
2013-10-04 05:00:00,75.5,72.7,29.95,ENE,68,3.0,5.0,91,0.00,,CLR,0.00,VWS V14.01,2013-10-04 09:00:00,
2013-10-04 05:05:00,75.5,72.7,29.95,East,90,4.0,6.0,91,0.00,,CLR,0.00,VWS V14.01,2013-10-04 09:05:00,
2013-10-04 05:10:00,75.5,72.7,29.95,East,90,3.0,6.0,91,0.00,,CLR,0.00,VWS V14.01,2013-10-04 09:10:00,
2013-10-04 05:15:00,75.5,72.7,29.95,East,90,3.0,6.0,91,0.00,,CLR,0.00,VWS V14.01,2013-10-04 09:15:00,
2013-10-04 05:20:00,75.5,72.7,29.95,East,90,3.0,6.0,91,0.00,,CLR,0.00,VWS V14.01,2013-10-04 09:20:00,
2013-10-04 05:25:00,75.5,72.7,29.95,East,90,3.0,5.0,91,0.00,,CLR,0.00,VWS V14.01,2013-10-04 09:25:00,
2013-10-04 05:30:00,75.5,72.7,29.95,East,90,2.0,5.0,91,0.00,,CLR,0.00,VWS V14.01,2013-10-04 09:30:00,
2013-10-04 05:35:00,75.5,72.7,29.95,East,90,2.0,4.0,91,0.00,,CLR,0.00,VWS V14.01,2013-10-04 09:35:00,
2013-10-04 05:40:00,75.5,72.7,29.95,East,90,2.0,4.0,91,0.00,,CLR,0.00,VWS V14.01,2013-10-04 09:40:00,
2013-10-04 05:45:00,75.5,72.7,29.95,East,90,2.0,4.0,91,0.00,,CLR,0.00,VWS V14.01,2013-10-04 09:45:00,
2013-10-04 05:50:00,75.5,72.7,29.95,ENE,68,2.0,5.0,91,0.00,,CLR,0.00,VWS V14.01,2013-10-04 09:50:00,
2013-10-04 05:55:00,75.5,72.7,29.96,East,90,3.0,5.0,91,0.00,,CLR,0.00,VWS V14.01,2013-10-04 09:55:00,
2013-10-04 06:00:00,75.5,72.7,29.96,East,90,4.0,7.0,91,0.00,,CLR,0.00,VWS V14.01,2013-10-04 10:00:00,
2013-10-04 06:05:00,75.5,72.7,29.96,East,90,3.0,5.0,91,0.00,,CLR,0.00,VWS V14.01,2013-10-04 10:05:00,
2013-10-04 06:10:00,75.5,72.7,29.96,East,90,2.0,4.0,91,0.00,,CLR,0.00,VWS V14.01,2013-10-04 10:10:00,
2013-10-04 06:15:00,75.5,72.7,29.96,ENE,68,3.0,5.0,91,0.00,,CLR,0.00,VWS V14.01,2013-10-04 10:15:00,
2013-10-04 06:20:00,75.5,72.7,29.96,ENE,68,3.0,5.0,91,0.00,,CLR,0.00,VWS V14.01,2013-10-04 10:20:00,
2013-10-04 06:25:00,75.4,72.6,29.96,ENE,68,3.0,5.0,91,0.00,,CLR,0.00,VWS V14.01,2013-10-04 10:25:00,
2013-10-04 06:30:00,75.4,72.6,29.96,ENE,68,3.0,4.0,91,0.00,,CLR,0.00,VWS V14.01,2013-10-04 10:30:00,
2013-10-04 06:35:00,75.3,72.5,29.96,ENE,68,3.0,6.0,91,0.00,,CLR,0.00,VWS V14.01,2013-10-04 10:35:00,
2013-10-04 06:40:00,75.2,72.4,29.96,ENE,68,4.0,7.0,91,0.00,,CLR,0.00,VWS V14.01,2013-10-04 10:40:00,
2013-10-04 06:45:00,75.2,72.4,29.96,ENE,68,4.0,6.0,91,0.00,,CLR,0.00,VWS V14.01,2013-10-04 10:45:00,
2013-10-04 06:50:00,75.2,72.4,29.96,ENE,68,3.0,6.0,91,0.00,,CLR,0.00,VWS V14.01,2013-10-04 10:50:00,
2013-10-04 06:55:00,75.2,72.4,29.97,ENE,68,3.0,5.0,91,0.00,,CLR,0.00,VWS V14.01,2013-10-04 10:55:00,
2013-10-04 07:00:00,75.2,72.4,29.97,ENE,68,3.0,5.0,91,0.00,,CLR,0.00,VWS V14.01,2013-10-04 11:00:00,
2013-10-04 07:05:00,75.1,72.3,29.97,ENE,68,2.0,4.0,91,0.00,,CLR,0.00,VWS V14.01,2013-10-04 11:05:00,
2013-10-04 07:10:00,75.1,72.3,29.97,ENE,68,3.0,5.0,91,0.00,,CLR,0.00,VWS V14.01,2013-10-04 11:10:00,
2013-10-04 07:15:00,75.0,72.2,29.97,ENE,68,2.0,4.0,91,0.00,,CLR,0.00,VWS V14.01,2013-10-04 11:15:00,
2013-10-04 07:20:00,74.9,72.4,29.97,ENE,68,3.0,5.0,92,0.00,,CLR,0.00,VWS V14.01,2013-10-04 11:20:00,
2013-10-04 07:30:00,74.9,72.4,29.98,ENE,68,2.0,6.0,92,0.00,,CLR,0.00,VWS V14.01,2013-10-04 11:30:00,
2013-10-04 07:35:00,74.9,72.4,29.98,ENE,68,2.0,5.0,92,0.00,,CLR,0.00,VWS V14.01,2013-10-04 11:35:00,
2013-10-04 07:40:00,74.8,72.3,29.98,ENE,68,3.0,6.0,92,0.00,,CLR,0.00,VWS V14.01,2013-10-04 11:40:00,
2013-10-04 07:45:00,74.8,72.3,29.97,ENE,68,3.0,6.0,92,0.00,,CLR,0.00,VWS V14.01,2013-10-04 11:45:00,
2013-10-04 07:59:00,75.0,72.5,29.97,ENE,68,3.0,6.0,92,0.00,,CLR,0.00,VWS V14.01,2013-10-04 11:59:00,
2013-10-04 08:00:00,75.3,72.5,29.98,East,96,4.0,5.0,91,0.00,,CLR,0.00,VWS V14.01,2013-10-04 12:00:00,
2013-10-04 08:04:00,75.3,72.5,29.98,ENE,75,3.0,7.0,91,0.00,,CLR,0.00,VWS V14.01,2013-10-04 12:04:00,
2013-10-04 08:05:00,75.3,72.5,29.98,East,84,2.0,7.0,91,0.00,,CLR,0.00,VWS V14.01,2013-10-04 12:05:00,
2013-10-04 08:09:00,75.4,72.6,29.98,NE,49,2.0,7.0,91,0.00,,CLR,0.00,VWS V14.01,2013-10-04 12:09:00,
2013-10-04 08:10:00,75.5,72.7,29.98,East,82,3.0,7.0,91,0.00,,CLR,0.00,VWS V14.01,2013-10-04 12:10:00,
2013-10-04 08:14:00,75.6,72.8,29.98,ENE,77,3.0,6.0,91,0.00,,CLR,0.00,VWS V14.01,2013-10-04 12:14:00,
2013-10-04 08:15:00,75.6,72.8,29.98,ENE,62,2.0,6.0,91,0.00,,CLR,0.00,VWS V14.01,2013-10-04 12:15:00,
2013-10-04 08:16:00,75.7,72.9,29.98,East,90,1.0,6.0,91,0.00,,CLR,0.00,VWS V14.01,2013-10-04 12:16:00,
2013-10-04 08:19:00,75.7,72.6,29.98,ENE,77,3.0,6.0,90,0.00,,CLR,0.00,VWS V14.01,2013-10-04 12:19:00,
2013-10-04 08:20:00,75.7,72.6,29.98,ENE,70,3.0,6.0,90,0.00,,CLR,0.00,VWS V14.01,2013-10-04 12:20:00,
2013-10-04 08:21:00,75.7,72.6,29.98,East,84,5.0,5.0,90,0.00,,CLR,0.00,VWS V14.01,2013-10-04 12:21:00,
2013-10-04 08:24:00,75.8,72.7,29.99,ENE,74,4.0,7.0,90,0.00,,CLR,0.00,VWS V14.01,2013-10-04 12:24:00,
2013-10-04 08:25:00,75.8,72.7,29.99,East,84,6.0,7.0,90,0.00,,CLR,0.00,VWS V14.01,2013-10-04 12:25:00,
2013-10-04 08:26:00,75.8,72.7,29.99,NE,53,5.0,7.0,90,0.00,,CLR,0.00,VWS V14.01,2013-10-04 12:26:00,
2013-10-04 08:29:00,75.9,72.8,29.99,East,94,2.0,6.0,90,0.00,,CLR,0.00,VWS V14.01,2013-10-04 12:29:00,
2013-10-04 08:30:00,75.9,72.8,29.99,ENE,70,4.0,6.0,90,0.00,,CLR,0.00,VWS V14.01,2013-10-04 12:30:00,
2013-10-04 08:31:00,76.0,72.9,29.99,East,82,4.0,4.0,90,0.00,,CLR,0.00,VWS V14.01,2013-10-04 12:31:00,
2013-10-04 08:34:00,76.1,73.0,29.99,ENE,68,4.0,5.0,90,0.00,,CLR,0.00,VWS V14.01,2013-10-04 12:34:00,
2013-10-04 08:35:00,76.1,73.0,29.99,ENE,57,2.0,5.0,90,0.00,,CLR,0.00,VWS V14.01,2013-10-04 12:35:00,
2013-10-04 08:36:00,76.1,73.0,29.99,ENE,75,1.0,5.0,90,0.00,,CLR,0.00,VWS V14.01,2013-10-04 12:36:00,
2013-10-04 08:37:00,76.1,73.0,29.99,East,101,5.0,5.0,90,0.00,,CLR,0.00,VWS V14.01,2013-10-04 12:37:00,
2013-10-04 08:39:00,76.2,73.1,30.00,ENE,75,4.0,5.0,90,0.00,,CLR,0.00,VWS V14.01,2013-10-04 12:39:00,
2013-10-04 08:40:00,76.2,73.1,30.00,East,86,4.0,5.0,90,0.00,,CLR,0.00,VWS V14.01,2013-10-04 12:40:00,
2013-10-04 08:41:00,76.2,72.7,30.00,ENE,57,1.0,5.0,89,0.00,,CLR,0.00,VWS V14.01,2013-10-04 12:41:00,
2013-10-04 08:42:00,76.2,72.7,30.00,ENE,62,3.0,4.0,89,0.00,,CLR,0.00,VWS V14.01,2013-10-04 12:42:00,
2013-10-04 08:44:00,76.3,72.8,30.00,ENE,68,1.0,5.0,89,0.00,,CLR,0.00,VWS V14.01,2013-10-04 12:44:00,
2013-10-04 08:45:00,76.3,72.8,30.00,East,82,3.0,5.0,89,0.00,,CLR,0.00,VWS V14.01,2013-10-04 12:45:00,
2013-10-04 08:46:00,76.3,72.8,30.00,East,81,2.0,5.0,89,0.00,,CLR,0.00,VWS V14.01,2013-10-04 12:46:00,
2013-10-04 08:47:00,76.4,72.9,30.00,NE,54,3.0,3.0,89,0.00,,CLR,0.00,VWS V14.01,2013-10-04 12:47:00,
2013-10-04 08:49:00,76.5,73.0,30.00,East,82,3.0,5.0,89,0.00,,CLR,0.00,VWS V14.01,2013-10-04 12:49:00,
2013-10-04 08:50:00,76.5,73.0,30.00,ENE,78,3.0,5.0,89,0.00,,CLR,0.00,VWS V14.01,2013-10-04 12:50:00,
2013-10-04 08:51:00,76.5,73.0,30.00,NE,49,2.0,4.0,89,0.00,,CLR,0.00,VWS V14.01,2013-10-04 12:51:00,
2013-10-04 08:52:00,76.6,73.1,30.00,ENE,64,3.0,4.0,89,0.00,,CLR,0.00,VWS V14.01,2013-10-04 12:52:00,
2013-10-04 08:55:00,76.7,73.2,30.00,ENE,78,1.0,6.0,89,0.00,,CLR,0.00,VWS V14.01,2013-10-04 12:55:00,
2013-10-04 08:56:00,76.7,73.2,30.00,East,79,2.0,3.0,89,0.00,,CLR,0.00,VWS V14.01,2013-10-04 12:56:00,
2013-10-04 08:57:00,76.8,73.0,30.01,ENE,58,3.0,4.0,88,0.00,,CLR,0.00,VWS V14.01,2013-10-04 12:57:00,
2013-10-04 09:00:00,76.8,73.0,30.01,ENE,68,5.0,5.0,88,0.00,,CLR,0.00,VWS V14.01,2013-10-04 13:00:00,
2013-10-04 09:01:00,76.9,73.1,30.01,ENE,75,5.0,5.0,88,0.00,,CLR,0.00,VWS V14.01,2013-10-04 13:01:00,
2013-10-04 09:02:00,76.9,73.1,30.01,ENE,70,1.0,5.0,88,0.00,,CLR,0.00,VWS V14.01,2013-10-04 13:02:00,
2013-10-04 09:05:00,77.0,73.2,30.01,East,81,3.0,5.0,88,0.00,,CLR,0.00,VWS V14.01,2013-10-04 13:05:00,
2013-10-04 09:06:00,77.1,73.3,30.01,ENE,72,2.0,3.0,88,0.00,,CLR,0.00,VWS V14.01,2013-10-04 13:06:00,
2013-10-04 09:07:00,77.2,73.4,30.01,ENE,72,3.0,3.0,88,0.00,,CLR,0.00,VWS V14.01,2013-10-04 13:07:00,
2013-10-04 09:08:00,77.2,73.4,30.01,ESE,108,1.0,3.0,88,0.00,,CLR,0.00,VWS V14.01,2013-10-04 13:08:00,
2013-10-04 09:10:00,77.3,73.5,30.01,East,86,2.0,3.0,88,0.00,,CLR,0.00,VWS V14.01,2013-10-04 13:10:00,
2013-10-04 09:11:00,77.4,73.6,30.01,ENE,66,4.0,5.0,88,0.00,,CLR,0.00,VWS V14.01,2013-10-04 13:11:00,
2013-10-04 09:12:00,77.5,73.3,30.01,ENE,75,3.0,5.0,87,0.00,,CLR,0.00,VWS V14.01,2013-10-04 13:12:00,
2013-10-04 09:13:00,77.5,73.3,30.01,East,79,2.0,5.0,87,0.00,,CLR,0.00,VWS V14.01,2013-10-04 13:13:00,
2013-10-04 09:15:00,77.5,73.3,30.01,ENE,75,4.0,6.0,87,0.00,,CLR,0.00,VWS V14.01,2013-10-04 13:15:00,
2013-10-04 09:16:00,77.5,73.3,30.01,East,91,2.0,2.0,87,0.00,,CLR,0.00,VWS V14.01,2013-10-04 13:16:00,
2013-10-04 09:17:00,77.6,73.4,30.01,ESE,111,2.0,4.0,87,0.00,,CLR,0.00,VWS V14.01,2013-10-04 13:17:00,
2013-10-04 09:18:00,77.6,73.4,30.01,ENE,76,4.0,5.0,87,0.00,,CLR,0.00,VWS V14.01,2013-10-04 13:18:00,
2013-10-04 09:20:00,77.7,73.5,30.01,ENE,57,5.0,7.0,87,0.00,,CLR,0.00,VWS V14.01,2013-10-04 13:20:00,
2013-10-04 09:21:00,77.8,73.6,30.01,ENE,66,6.0,6.0,87,0.00,,CLR,0.00,VWS V14.01,2013-10-04 13:21:00,
2013-10-04 09:22:00,77.9,73.7,30.01,ENE,78,4.0,7.0,87,0.00,,CLR,0.00,VWS V14.01,2013-10-04 13:22:00,
2013-10-04 09:23:00,77.9,73.4,30.02,ENE,63,4.0,8.0,86,0.00,,CLR,0.00,VWS V14.01,2013-10-04 13:23:00,
2013-10-04 09:24:00,77.9,73.4,30.01,East,80,5.0,8.0,86,0.00,,CLR,0.00,VWS V14.01,2013-10-04 13:24:00,
2013-10-04 09:25:00,78.0,73.8,30.02,East,82,5.0,8.0,87,0.00,,CLR,0.00,VWS V14.01,2013-10-04 13:25:00,
2013-10-04 09:26:00,78.0,73.5,30.02,ENE,78,3.0,4.0,86,0.00,,CLR,0.00,VWS V14.01,2013-10-04 13:26:00,
2013-10-04 09:27:00,78.1,73.6,30.02,East,101,4.0,5.0,86,0.00,,CLR,0.00,VWS V14.01,2013-10-04 13:27:00,
2013-10-04 09:29:00,78.2,73.7,30.02,NE,51,3.0,5.0,86,0.00,,CLR,0.00,VWS V14.01,2013-10-04 13:29:00,
2013-10-04 09:30:00,78.3,73.8,30.02,ENE,72,3.0,6.0,86,0.00,,CLR,0.00,VWS V14.01,2013-10-04 13:30:00,
2013-10-04 09:31:00,78.3,73.8,30.02,ENE,78,4.0,5.0,86,0.00,,CLR,0.00,VWS V14.01,2013-10-04 13:31:00,
2013-10-04 09:33:00,78.4,73.9,30.01,ENE,78,8.0,8.0,86,0.00,,CLR,0.00,VWS V14.01,2013-10-04 13:33:00,
2013-10-04 09:34:00,78.4,73.9,30.02,East,88,7.0,8.0,86,0.00,,CLR,0.00,VWS V14.01,2013-10-04 13:34:00,
2013-10-04 09:35:00,78.4,73.9,30.02,ENE,68,5.0,8.0,86,0.00,,CLR,0.00,VWS V14.01,2013-10-04 13:35:00,
2013-10-04 09:36:00,78.4,73.5,30.02,ENE,70,4.0,6.0,85,0.00,,CLR,0.00,VWS V14.01,2013-10-04 13:36:00,
2013-10-04 09:37:00,78.5,74.0,30.02,East,84,6.0,6.0,86,0.00,,CLR,0.00,VWS V14.01,2013-10-04 13:37:00,
2013-10-04 09:39:00,78.5,74.0,30.02,NE,54,4.0,6.0,86,0.00,,CLR,0.00,VWS V14.01,2013-10-04 13:39:00,
2013-10-04 09:41:00,78.6,74.1,30.02,ENE,63,7.0,7.0,86,0.00,,CLR,0.00,VWS V14.01,2013-10-04 13:41:00,
2013-10-04 09:43:00,78.6,73.7,30.02,East,84,7.0,8.0,85,0.00,,CLR,0.00,VWS V14.01,2013-10-04 13:43:00,
2013-10-04 09:44:00,78.7,73.8,30.02,ENE,74,6.0,8.0,85,0.00,,CLR,0.00,VWS V14.01,2013-10-04 13:44:00,
2013-10-04 09:46:00,78.8,73.9,30.02,East,89,3.0,4.0,85,0.00,,CLR,0.00,VWS V14.01,2013-10-04 13:46:00,
2013-10-04 09:48:00,79.1,74.2,30.02,ENE,68,4.0,6.0,85,0.00,,CLR,0.00,VWS V14.01,2013-10-04 13:48:00,
2013-10-04 09:49:00,79.1,74.2,30.02,ENE,72,3.0,6.0,85,0.00,,CLR,0.00,VWS V14.01,2013-10-04 13:49:00,
2013-10-04 09:51:00,79.4,74.5,30.02,ENE,75,4.0,6.0,85,0.00,,CLR,0.00,VWS V14.01,2013-10-04 13:51:00,
2013-10-04 09:52:00,79.5,74.2,30.02,ENE,78,10.0,11.0,84,0.00,,CLR,0.00,VWS V14.01,2013-10-04 13:52:00,
2013-10-04 09:53:00,79.7,74.4,30.02,NE,54,11.0,11.0,84,0.00,,CLR,0.00,VWS V14.01,2013-10-04 13:53:00,
2013-10-04 09:54:00,79.7,74.4,30.02,East,81,7.0,11.0,84,0.00,,CLR,0.00,VWS V14.01,2013-10-04 13:54:00,
2013-10-04 09:55:00,79.8,74.5,30.02,ENE,73,6.0,11.0,84,0.00,,CLR,0.00,VWS V14.01,2013-10-04 13:55:00,
2013-10-04 09:56:00,79.9,74.6,30.02,NE,51,4.0,6.0,84,0.00,,CLR,0.00,VWS V14.01,2013-10-04 13:56:00,
2013-10-04 09:57:00,80.1,74.8,30.02,ENE,70,3.0,8.0,84,0.00,,CLR,0.00,VWS V14.01,2013-10-04 13:57:00,
2013-10-04 09:58:00,80.2,74.6,30.02,NE,40,5.0,8.0,83,0.00,,CLR,0.00,VWS V14.01,2013-10-04 13:58:00,
2013-10-04 09:59:00,80.3,74.7,30.02,NE,42,5.0,8.0,83,0.00,,CLR,0.00,VWS V14.01,2013-10-04 13:59:00,
2013-10-04 10:00:00,80.4,74.8,30.02,ENE,64,4.0,8.0,83,0.00,,CLR,0.00,VWS V14.01,2013-10-04 14:00:00,
2013-10-04 10:01:00,80.5,74.9,30.02,East,92,2.0,8.0,83,0.00,,CLR,0.00,VWS V14.01,2013-10-04 14:01:00,
2013-10-04 10:02:00,80.6,75.0,30.02,ENE,73,6.0,9.0,83,0.00,,CLR,0.00,VWS V14.01,2013-10-04 14:02:00,
2013-10-04 10:04:00,80.6,74.6,30.02,ESE,123,6.0,9.0,82,0.00,,CLR,0.00,VWS V14.01,2013-10-04 14:04:00,
2013-10-04 10:05:00,80.6,74.6,30.02,East,96,7.0,9.0,82,0.00,,CLR,0.00,VWS V14.01,2013-10-04 14:05:00,
2013-10-04 10:06:00,80.6,74.6,30.02,SE,124,5.0,7.0,82,0.00,,CLR,0.00,VWS V14.01,2013-10-04 14:06:00,
2013-10-04 10:07:00,80.6,74.6,30.02,East,97,5.0,7.0,82,0.00,,CLR,0.00,VWS V14.01,2013-10-04 14:07:00,
2013-10-04 10:09:00,80.7,74.3,30.02,East,84,5.0,11.0,81,0.00,,CLR,0.00,VWS V14.01,2013-10-04 14:09:00,
2013-10-04 10:10:00,80.7,74.3,30.02,East,84,8.0,11.0,81,0.00,,CLR,0.00,VWS V14.01,2013-10-04 14:10:00,
2013-10-04 10:11:00,80.7,74.3,30.02,East,79,8.0,11.0,81,0.00,,CLR,0.00,VWS V14.01,2013-10-04 14:11:00,
2013-10-04 10:12:00,80.7,74.3,30.02,NE,42,4.0,10.0,81,0.00,,CLR,0.00,VWS V14.01,2013-10-04 14:12:00,
2013-10-04 10:15:00,80.8,74.8,30.02,East,86,5.0,10.0,82,0.00,,CLR,0.00,VWS V14.01,2013-10-04 14:15:00,
2013-10-04 10:16:00,80.9,74.9,30.02,ESE,114,1.0,10.0,82,0.00,,CLR,0.00,VWS V14.01,2013-10-04 14:16:00,
2013-10-04 10:17:00,81.0,75.0,30.02,ENE,62,7.0,7.0,82,0.00,,CLR,0.00,VWS V14.01,2013-10-04 14:17:00,
2013-10-04 10:20:00,81.0,74.2,30.02,ENE,77,8.0,11.0,80,0.00,,CLR,0.00,VWS V14.01,2013-10-04 14:20:00,
2013-10-04 10:21:00,81.0,74.2,30.02,East,96,7.0,7.0,80,0.00,,CLR,0.00,VWS V14.01,2013-10-04 14:21:00,
2013-10-04 10:22:00,81.0,73.9,30.02,ENE,65,7.0,8.0,79,0.00,,CLR,0.00,VWS V14.01,2013-10-04 14:22:00,
2013-10-04 10:25:00,81.0,74.2,30.02,East,79,5.0,9.0,80,0.00,,CLR,0.00,VWS V14.01,2013-10-04 14:25:00,
2013-10-04 10:26:00,80.9,73.8,30.02,ENE,77,3.0,4.0,79,0.00,,CLR,0.00,VWS V14.01,2013-10-04 14:26:00,
2013-10-04 10:27:00,81.0,73.9,30.02,ENE,72,10.0,10.0,79,0.00,,CLR,0.00,VWS V14.01,2013-10-04 14:27:00,
2013-10-04 10:30:00,80.9,74.2,30.02,East,79,6.0,10.0,80,0.00,,CLR,0.00,VWS V14.01,2013-10-04 14:30:00,
2013-10-04 10:31:00,80.9,74.2,30.02,NE,44,4.0,7.0,80,0.00,,CLR,0.00,VWS V14.01,2013-10-04 14:31:00,
2013-10-04 10:32:00,80.9,74.2,30.02,East,90,8.0,8.0,80,0.00,,CLR,0.00,VWS V14.01,2013-10-04 14:32:00,
2013-10-04 10:33:00,80.9,74.2,30.02,East,84,3.0,9.0,80,0.00,,CLR,0.00,VWS V14.01,2013-10-04 14:33:00,
2013-10-04 10:35:00,81.1,74.7,30.02,ENE,66,4.0,9.0,81,0.00,,CLR,0.00,VWS V14.01,2013-10-04 14:35:00,
2013-10-04 10:36:00,81.3,74.5,30.02,ESE,105,5.0,7.0,80,0.00,,CLR,0.00,VWS V14.01,2013-10-04 14:36:00,
2013-10-04 10:37:00,81.3,74.5,30.02,East,90,5.0,7.0,80,0.00,,CLR,0.00,VWS V14.01,2013-10-04 14:37:00,
2013-10-04 10:38:00,81.3,74.5,30.02,East,79,6.0,7.0,80,0.00,,CLR,0.00,VWS V14.01,2013-10-04 14:38:00,
2013-10-04 10:40:00,81.3,74.2,30.02,ENE,75,7.0,8.0,79,0.00,,CLR,0.00,VWS V14.01,2013-10-04 14:40:00,
2013-10-04 10:41:00,81.3,74.2,30.02,ENE,77,6.0,9.0,79,0.00,,CLR,0.00,VWS V14.01,2013-10-04 14:41:00,
2013-10-04 10:42:00,81.2,74.1,30.02,East,87,6.0,9.0,79,0.00,,CLR,0.00,VWS V14.01,2013-10-04 14:42:00,
2013-10-04 10:43:00,81.2,74.1,30.02,ENE,76,7.0,9.0,79,0.00,,CLR,0.00,VWS V14.01,2013-10-04 14:43:00,
2013-10-04 10:46:00,81.4,74.6,30.02,ESE,103,5.0,9.0,80,0.00,,CLR,0.00,VWS V14.01,2013-10-04 14:46:00,
2013-10-04 10:47:00,81.4,74.3,30.02,ENE,75,5.0,5.0,79,0.00,,CLR,0.00,VWS V14.01,2013-10-04 14:47:00,
2013-10-04 10:48:00,81.5,74.4,30.02,ENE,75,4.0,6.0,79,0.00,,CLR,0.00,VWS V14.01,2013-10-04 14:48:00,
2013-10-04 10:51:00,81.5,74.4,30.02,ENE,75,6.0,7.0,79,0.00,,CLR,0.00,VWS V14.01,2013-10-04 14:51:00,
2013-10-04 10:52:00,81.7,74.6,30.02,ENE,78,8.0,8.0,79,0.00,,CLR,0.00,VWS V14.01,2013-10-04 14:52:00,
2013-10-04 10:53:00,81.7,74.2,30.02,East,84,3.0,10.0,78,0.00,,CLR,0.00,VWS V14.01,2013-10-04 14:53:00,
2013-10-04 10:56:00,81.6,74.1,30.03,ENE,75,6.0,10.0,78,0.00,,CLR,0.00,VWS V14.01,2013-10-04 14:56:00,
2013-10-04 10:57:00,81.6,73.7,30.03,East,82,7.0,9.0,77,0.00,,CLR,0.00,VWS V14.01,2013-10-04 14:57:00,
2013-10-04 10:58:00,81.6,73.7,30.02,ENE,71,9.0,9.0,77,0.00,,CLR,0.00,VWS V14.01,2013-10-04 14:58:00,
2013-10-04 11:01:00,81.4,73.5,30.02,East,94,6.0,9.0,77,0.00,,FEW022,0.00,VWS V14.01,2013-10-04 15:01:00,
2013-10-04 11:02:00,81.4,73.5,30.02,ENE,66,5.0,9.0,77,0.00,,FEW022,0.00,VWS V14.01,2013-10-04 15:02:00,
2013-10-04 11:03:00,81.5,74.0,30.02,NE,51,5.0,9.0,78,0.00,,FEW022,0.00,VWS V14.01,2013-10-04 15:03:00,
2013-10-04 11:04:00,81.5,74.0,30.02,East,80,5.0,9.0,78,0.00,,FEW022,0.00,VWS V14.01,2013-10-04 15:04:00,
2013-10-04 11:06:00,81.7,73.8,30.02,East,80,5.0,7.0,77,0.00,,FEW022,0.00,VWS V14.01,2013-10-04 15:06:00,
2013-10-04 11:07:00,81.8,73.9,30.02,East,101,7.0,8.0,77,0.00,,FEW022,0.00,VWS V14.01,2013-10-04 15:07:00,
2013-10-04 11:08:00,81.8,73.9,30.02,East,82,6.0,8.0,77,0.00,,FEW022,0.00,VWS V14.01,2013-10-04 15:08:00,
2013-10-04 11:09:00,81.8,74.3,30.02,ENE,78,6.0,8.0,78,0.00,,FEW022,0.00,VWS V14.01,2013-10-04 15:09:00,
2013-10-04 11:12:00,82.0,74.5,30.02,East,90,7.0,8.0,78,0.00,,FEW022,0.00,VWS V14.01,2013-10-04 15:12:00,
2013-10-04 11:13:00,82.0,73.7,30.02,East,96,5.0,9.0,76,0.00,,FEW022,0.00,VWS V14.01,2013-10-04 15:13:00,
2013-10-04 11:14:00,81.9,73.6,30.03,NE,49,3.0,9.0,76,0.00,,FEW022,0.00,VWS V14.01,2013-10-04 15:14:00,
2013-10-04 11:17:00,82.0,73.7,30.03,ENE,77,6.0,8.0,76,0.00,,FEW022,0.00,VWS V14.01,2013-10-04 15:17:00,
2013-10-04 11:18:00,82.0,73.3,30.03,ESE,119,4.0,8.0,75,0.00,,FEW022,0.00,VWS V14.01,2013-10-04 15:18:00,
2013-10-04 11:19:00,81.9,72.4,30.03,ENE,75,6.0,8.0,73,0.00,,FEW022,0.00,VWS V14.01,2013-10-04 15:19:00,
2013-10-04 11:22:00,81.9,72.8,30.02,East,91,2.0,5.0,74,0.00,,FEW022,0.00,VWS V14.01,2013-10-04 15:22:00,
2013-10-04 11:23:00,82.0,72.9,30.02,East,90,4.0,7.0,74,0.00,,FEW022,0.00,VWS V14.01,2013-10-04 15:23:00,
2013-10-04 11:24:00,82.0,73.3,30.02,ESE,113,3.0,7.0,75,0.00,,FEW022,0.00,VWS V14.01,2013-10-04 15:24:00,
2013-10-04 11:27:00,82.2,73.5,30.02,NE,44,4.0,7.0,75,0.00,,FEW022,0.00,VWS V14.01,2013-10-04 15:27:00,
2013-10-04 11:29:00,82.4,74.1,30.03,East,99,3.0,7.0,76,0.00,,FEW022,0.00,VWS V14.01,2013-10-04 15:29:00,
2013-10-04 11:32:00,83.3,74.6,30.02,ENE,72,3.0,5.0,75,0.00,,FEW022,0.00,VWS V14.01,2013-10-04 15:32:00,
2013-10-04 11:33:00,83.5,74.8,30.02,ENE,74,5.0,5.0,75,0.00,,FEW022,0.00,VWS V14.01,2013-10-04 15:33:00,
2013-10-04 11:34:00,83.5,73.9,30.02,NE,56,5.0,7.0,73,0.00,,FEW022,0.00,VWS V14.01,2013-10-04 15:34:00,
2013-10-04 11:35:00,83.5,73.5,30.02,ESE,113,6.0,7.0,72,0.00,,FEW022,0.00,VWS V14.01,2013-10-04 15:35:00,
2013-10-04 11:37:00,83.4,73.4,30.02,ENE,77,4.0,6.0,72,0.00,,FEW022,0.00,VWS V14.01,2013-10-04 15:37:00,
2013-10-04 11:38:00,83.5,73.9,30.02,ENE,73,7.0,9.0,73,0.00,,FEW022,0.00,VWS V14.01,2013-10-04 15:38:00,
2013-10-04 11:39:00,83.5,73.9,30.02,East,101,5.0,9.0,73,0.00,,FEW022,0.00,VWS V14.01,2013-10-04 15:39:00,
2013-10-04 11:40:00,83.5,73.9,30.03,ESE,114,6.0,9.0,73,0.00,,FEW022,0.00,VWS V14.01,2013-10-04 15:40:00,
2013-10-04 11:42:00,83.3,73.3,30.03,NNE,32,0.0,6.0,72,0.00,,FEW022,0.00,VWS V14.01,2013-10-04 15:42:00,
2013-10-04 11:43:00,83.3,73.8,30.02,ENE,63,1.0,6.0,73,0.00,,FEW022,0.00,VWS V14.01,2013-10-04 15:43:00,
2013-10-04 11:44:00,83.3,73.3,30.02,ENE,72,1.0,6.0,72,0.00,,FEW022,0.00,VWS V14.01,2013-10-04 15:44:00,
2013-10-04 11:45:00,83.4,73.8,30.03,ENE,74,2.0,6.0,73,0.00,,FEW022,0.00,VWS V14.01,2013-10-04 15:45:00,
2013-10-04 11:47:00,83.5,73.9,30.02,SE,127,0.0,1.0,73,0.00,,FEW022,0.00,VWS V14.01,2013-10-04 15:47:00,
2013-10-04 11:48:00,83.5,74.3,30.02,East,93,2.0,5.0,74,0.00,,FEW022,0.00,VWS V14.01,2013-10-04 15:48:00,
2013-10-04 11:49:00,83.5,73.9,30.02,ESE,108,4.0,6.0,73,0.00,,FEW022,0.00,VWS V14.01,2013-10-04 15:49:00,
2013-10-04 11:50:00,83.5,73.9,30.02,East,92,6.0,7.0,73,0.00,,FEW022,0.00,VWS V14.01,2013-10-04 15:50:00,
2013-10-04 11:52:00,83.3,74.2,30.03,East,95,3.0,3.0,74,0.00,,FEW022,0.00,VWS V14.01,2013-10-04 15:52:00,
2013-10-04 11:53:00,83.2,73.7,30.02,East,81,4.0,6.0,73,0.00,,FEW022,0.00,VWS V14.01,2013-10-04 15:53:00,
2013-10-04 11:54:00,83.0,73.5,30.02,ESE,106,3.0,6.0,73,0.00,,FEW022,0.00,VWS V14.01,2013-10-04 15:54:00,
2013-10-04 11:55:00,83.0,73.5,30.02,SSE,150,4.0,6.0,73,0.00,,FEW022,0.00,VWS V14.01,2013-10-04 15:55:00,
2013-10-04 11:56:00,83.0,73.5,30.02,SE,137,3.0,6.0,73,0.00,,FEW022,0.00,VWS V14.01,2013-10-04 15:56:00,
2013-10-04 11:57:00,83.0,73.9,30.02,ENE,68,2.0,3.0,74,0.00,,FEW022,0.00,VWS V14.01,2013-10-04 15:57:00,
2013-10-04 11:58:00,83.0,73.9,30.02,NE,41,4.0,6.0,74,0.00,,FEW022,0.00,VWS V14.01,2013-10-04 15:58:00,
2013-10-04 11:59:00,83.0,73.9,30.02,East,80,3.0,6.0,74,0.00,,FEW022,0.00,VWS V14.01,2013-10-04 15:59:00,
2013-10-04 12:00:00,83.0,73.9,30.02,East,81,3.0,6.0,74,0.00,,CLR,0.00,VWS V14.01,2013-10-04 16:00:00,
2013-10-04 12:01:00,82.9,73.8,30.02,ENE,67,5.0,7.0,74,0.00,,CLR,0.00,VWS V14.01,2013-10-04 16:01:00,
2013-10-04 12:02:00,82.9,73.8,30.02,East,84,3.0,6.0,74,0.00,,CLR,0.00,VWS V14.01,2013-10-04 16:02:00,
2013-10-04 12:03:00,82.8,73.7,30.02,ENE,75,2.0,6.0,74,0.00,,CLR,0.00,VWS V14.01,2013-10-04 16:03:00,
2013-10-04 12:05:00,82.9,73.8,30.02,East,97,2.0,6.0,74,0.00,,CLR,0.00,VWS V14.01,2013-10-04 16:05:00,
2013-10-04 12:06:00,82.9,74.2,30.02,ENE,70,2.0,6.0,75,0.00,,CLR,0.00,VWS V14.01,2013-10-04 16:06:00,
2013-10-04 12:08:00,83.0,73.9,30.02,East,89,1.0,2.0,74,0.00,,CLR,0.00,VWS V14.01,2013-10-04 16:08:00,
2013-10-04 12:09:00,83.0,74.3,30.02,East,101,1.0,2.0,75,0.00,,CLR,0.00,VWS V14.01,2013-10-04 16:09:00,
2013-10-04 12:10:00,83.2,74.1,30.02,ESE,103,1.0,2.0,74,0.00,,CLR,0.00,VWS V14.01,2013-10-04 16:10:00,
2013-10-04 12:11:00,83.3,74.2,30.02,SE,139,4.0,5.0,74,0.00,,CLR,0.00,VWS V14.01,2013-10-04 16:11:00,
2013-10-04 12:13:00,83.5,73.9,30.02,East,88,3.0,4.0,73,0.00,,CLR,0.00,VWS V14.01,2013-10-04 16:13:00,
2013-10-04 12:14:00,83.5,73.5,30.02,ESE,117,1.0,4.0,72,0.00,,CLR,0.00,VWS V14.01,2013-10-04 16:14:00,
2013-10-04 12:15:00,83.6,74.0,30.02,ESE,117,1.0,4.0,73,0.00,,CLR,0.00,VWS V14.01,2013-10-04 16:15:00,
2013-10-04 12:16:00,83.7,74.1,30.02,ESE,119,1.0,4.0,73,0.00,,CLR,0.00,VWS V14.01,2013-10-04 16:16:00,
2013-10-04 12:18:00,84.0,74.0,30.02,SE,125,2.0,4.0,72,0.00,,CLR,0.00,VWS V14.01,2013-10-04 16:18:00,
2013-10-04 12:19:00,84.1,74.5,30.01,East,97,4.0,6.0,73,0.00,,CLR,0.00,VWS V14.01,2013-10-04 16:19:00,
2013-10-04 12:20:00,84.2,74.2,30.01,ESE,108,2.0,6.0,72,0.00,,CLR,0.00,VWS V14.01,2013-10-04 16:20:00,
2013-10-04 12:21:00,84.3,74.3,30.01,SE,136,3.0,6.0,72,0.00,,CLR,0.00,VWS V14.01,2013-10-04 16:21:00,
2013-10-04 12:23:00,84.7,74.7,30.01,SSE,167,6.0,6.0,72,0.00,,CLR,0.00,VWS V14.01,2013-10-04 16:23:00,
2013-10-04 12:24:00,84.8,74.4,30.01,South,186,3.0,6.0,71,0.00,,CLR,0.00,VWS V14.01,2013-10-04 16:24:00,
2013-10-04 12:25:00,85.0,74.1,30.01,SSE,158,1.0,6.0,70,0.00,,CLR,0.00,VWS V14.01,2013-10-04 16:25:00,
2013-10-04 12:26:00,85.1,74.2,30.01,SE,146,0.0,0.0,70,0.00,,CLR,0.00,VWS V14.01,2013-10-04 16:26:00,
2013-10-04 12:27:00,85.2,74.3,30.01,ENE,68,3.0,3.0,70,0.00,,CLR,0.00,VWS V14.01,2013-10-04 16:27:00,
2013-10-04 12:28:00,85.4,73.6,30.01,NNW,332,2.0,7.0,68,0.00,,CLR,0.00,VWS V14.01,2013-10-04 16:28:00,
2013-10-04 12:29:00,85.3,73.6,30.01,NNW,333,1.0,7.0,68,0.00,,CLR,0.00,VWS V14.01,2013-10-04 16:29:00,
2013-10-04 12:30:00,85.3,73.6,30.01,ESE,119,3.0,7.0,68,0.00,,CLR,0.00,VWS V14.01,2013-10-04 16:30:00,
2013-10-04 12:31:00,85.3,74.4,30.01,South,190,3.0,5.0,70,0.00,,CLR,0.00,VWS V14.01,2013-10-04 16:31:00,
2013-10-04 12:32:00,85.4,74.5,30.01,SE,143,3.0,5.0,70,0.00,,CLR,0.00,VWS V14.01,2013-10-04 16:32:00,
2013-10-04 12:34:00,85.6,74.7,30.01,SE,143,3.0,5.0,70,0.00,,CLR,0.00,VWS V14.01,2013-10-04 16:34:00,
2013-10-04 12:35:00,85.7,74.8,30.01,SE,134,4.0,5.0,70,0.00,,CLR,0.00,VWS V14.01,2013-10-04 16:35:00,
2013-10-04 12:36:00,85.7,74.4,30.01,SSE,150,4.0,5.0,69,0.00,,CLR,0.00,VWS V14.01,2013-10-04 16:36:00,
2013-10-04 12:37:00,85.7,74.4,30.01,SE,136,1.0,5.0,69,0.00,,CLR,0.00,VWS V14.01,2013-10-04 16:37:00,
2013-10-04 12:39:00,85.7,74.4,30.01,SW,217,4.0,5.0,69,0.00,,CLR,0.00,VWS V14.01,2013-10-04 16:39:00,
2013-10-04 12:40:00,85.7,74.4,30.01,SSW,205,4.0,5.0,69,0.00,,CLR,0.00,VWS V14.01,2013-10-04 16:40:00,
2013-10-04 12:41:00,85.7,74.4,30.01,SSW,207,2.0,4.0,69,0.00,,CLR,0.00,VWS V14.01,2013-10-04 16:41:00,
2013-10-04 12:42:00,85.7,74.4,30.01,South,189,0.0,4.0,69,0.00,,CLR,0.00,VWS V14.01,2013-10-04 16:42:00,
2013-10-04 12:44:00,85.9,74.1,30.01,East,82,4.0,4.0,68,0.00,,CLR,0.00,VWS V14.01,2013-10-04 16:44:00,
2013-10-04 12:45:00,86.0,73.3,30.01,NE,55,4.0,4.0,66,0.00,,CLR,0.00,VWS V14.01,2013-10-04 16:45:00,
2013-10-04 12:46:00,86.1,72.5,30.00,ENE,71,3.0,3.0,64,0.00,,CLR,0.00,VWS V14.01,2013-10-04 16:46:00,
2013-10-04 12:47:00,86.2,72.1,30.01,ESE,122,5.0,8.0,63,0.00,,CLR,0.00,VWS V14.01,2013-10-04 16:47:00,
2013-10-04 12:48:00,86.2,72.1,30.01,East,92,6.0,8.0,63,0.00,,CLR,0.00,VWS V14.01,2013-10-04 16:48:00,
2013-10-04 12:49:00,86.2,71.2,30.00,SE,136,4.0,11.0,61,0.00,,CLR,0.00,VWS V14.01,2013-10-04 16:49:00,
2013-10-04 12:50:00,86.1,71.1,30.00,East,98,7.0,11.0,61,0.00,,CLR,0.00,VWS V14.01,2013-10-04 16:50:00,
2013-10-04 12:51:00,86.1,71.1,30.01,ESE,106,2.0,3.0,61,0.00,,CLR,0.00,VWS V14.01,2013-10-04 16:51:00,
2013-10-04 12:52:00,86.2,71.7,30.00,ESE,118,3.0,6.0,62,0.00,,CLR,0.00,VWS V14.01,2013-10-04 16:52:00,
2013-10-04 12:53:00,86.2,71.7,30.00,SE,124,3.0,6.0,62,0.00,,CLR,0.00,VWS V14.01,2013-10-04 16:53:00,
2013-10-04 12:54:00,86.4,70.4,30.00,ESE,114,1.0,6.0,59,0.00,,CLR,0.00,VWS V14.01,2013-10-04 16:54:00,
2013-10-04 12:55:00,86.4,70.4,30.00,SE,127,1.0,6.0,59,0.00,,CLR,0.00,VWS V14.01,2013-10-04 16:55:00,
2013-10-04 12:56:00,86.6,71.6,30.00,SE,125,3.0,3.0,61,0.00,,CLR,0.00,VWS V14.01,2013-10-04 16:56:00,
2013-10-04 12:58:00,86.6,72.0,30.00,East,91,5.0,11.0,62,0.00,,CLR,0.00,VWS V14.01,2013-10-04 16:58:00,
2013-10-04 12:59:00,86.5,71.9,30.00,SE,139,5.0,11.0,62,0.00,,CLR,0.00,VWS V14.01,2013-10-04 16:59:00,
2013-10-04 13:00:00,86.4,72.3,30.00,East,86,4.0,11.0,63,0.00,,CLR,0.00,VWS V14.01,2013-10-04 17:00:00,
2013-10-04 13:01:00,86.2,72.1,30.00,SSE,149,4.0,4.0,63,0.00,,CLR,0.00,VWS V14.01,2013-10-04 17:01:00,
2013-10-04 13:04:00,86.3,70.8,30.00,NNE,32,3.0,6.0,60,0.00,,CLR,0.00,VWS V14.01,2013-10-04 17:04:00,
2013-10-04 13:05:00,86.4,70.9,30.00,NNE,13,6.0,7.0,60,0.00,,CLR,0.00,VWS V14.01,2013-10-04 17:05:00,
2013-10-04 13:06:00,86.5,70.5,30.00,ENE,63,7.0,9.0,59,0.00,,CLR,0.00,VWS V14.01,2013-10-04 17:06:00,
2013-10-04 13:09:00,86.4,70.9,30.00,ENE,60,3.0,9.0,60,0.00,,CLR,0.00,VWS V14.01,2013-10-04 17:09:00,
2013-10-04 13:10:00,86.5,71.5,29.99,East,89,3.0,9.0,61,0.00,,CLR,0.00,VWS V14.01,2013-10-04 17:10:00,
2013-10-04 13:12:00,86.7,70.2,29.99,ENE,75,8.0,9.0,58,0.00,,CLR,0.00,VWS V14.01,2013-10-04 17:12:00,
2013-10-04 13:14:00,86.7,71.2,29.99,NE,51,7.0,9.0,60,0.00,,CLR,0.00,VWS V14.01,2013-10-04 17:14:00,
2013-10-04 13:15:00,86.6,70.6,29.99,ENE,70,5.0,9.0,59,0.00,,CLR,0.00,VWS V14.01,2013-10-04 17:15:00,
2013-10-04 13:17:00,86.6,69.1,29.99,NE,54,5.0,7.0,56,0.00,,CLR,0.00,VWS V14.01,2013-10-04 17:17:00,
2013-10-04 13:19:00,86.6,71.1,29.99,East,81,2.0,7.0,60,0.00,,CLR,0.00,VWS V14.01,2013-10-04 17:19:00,
2013-10-04 13:20:00,86.6,69.6,29.99,East,79,3.0,7.0,57,0.00,,CLR,0.00,VWS V14.01,2013-10-04 17:20:00,
2013-10-04 13:21:00,86.6,70.6,29.99,ENE,60,1.0,7.0,59,0.00,,CLR,0.00,VWS V14.01,2013-10-04 17:21:00,
2013-10-04 13:22:00,86.6,70.6,29.99,SE,141,3.0,3.0,59,0.00,,CLR,0.00,VWS V14.01,2013-10-04 17:22:00,
2013-10-04 13:24:00,86.8,70.8,29.99,ESE,113,4.0,8.0,59,0.00,,CLR,0.00,VWS V14.01,2013-10-04 17:24:00,
2013-10-04 13:25:00,86.8,69.2,29.99,ESE,105,8.0,9.0,56,0.00,,CLR,0.00,VWS V14.01,2013-10-04 17:25:00,
2013-10-04 13:26:00,86.8,68.7,29.99,ENE,78,5.0,9.0,55,0.00,,CLR,0.00,VWS V14.01,2013-10-04 17:26:00,
2013-10-04 13:27:00,86.9,69.3,29.99,ESE,115,3.0,8.0,56,0.00,,CLR,0.00,VWS V14.01,2013-10-04 17:27:00,
2013-10-04 13:29:00,86.9,70.4,29.98,ESE,121,2.0,8.0,58,0.00,,CLR,0.00,VWS V14.01,2013-10-04 17:29:00,
2013-10-04 13:30:00,86.9,70.4,29.98,SSE,162,3.0,8.0,58,0.00,,CLR,0.00,VWS V14.01,2013-10-04 17:30:00,
2013-10-04 13:31:00,86.9,71.3,29.98,SSE,160,3.0,8.0,60,0.00,,CLR,0.00,VWS V14.01,2013-10-04 17:31:00,
2013-10-04 13:32:00,87.0,70.4,29.98,ESE,106,5.0,6.0,58,0.00,,CLR,0.00,VWS V14.01,2013-10-04 17:32:00,
2013-10-04 13:34:00,87.2,70.1,29.98,SE,132,4.0,7.0,57,0.00,,CLR,0.00,VWS V14.01,2013-10-04 17:34:00,
2013-10-04 13:35:00,87.4,70.3,29.98,SSE,152,3.0,7.0,57,0.00,,CLR,0.00,VWS V14.01,2013-10-04 17:35:00,
2013-10-04 13:36:00,87.5,70.4,29.98,ESE,121,3.0,7.0,57,0.00,,CLR,0.00,VWS V14.01,2013-10-04 17:36:00,
2013-10-04 13:37:00,87.7,70.6,29.98,East,101,3.0,7.0,57,0.00,,CLR,0.00,VWS V14.01,2013-10-04 17:37:00,
2013-10-04 14:00:00,87.2,71.6,29.97,East,90,4.0,7.0,60,0.00,,CLR,0.00,VWS V14.01,2013-10-04 18:00:00,
2013-10-04 14:05:00,87.5,71.9,29.97,NE,45,5.0,9.0,60,0.00,,CLR,0.00,VWS V14.01,2013-10-04 18:05:00,
2013-10-04 14:10:00,87.5,70.9,29.96,NE,45,4.0,10.0,58,0.00,,CLR,0.00,VWS V14.01,2013-10-04 18:10:00,
2013-10-04 14:15:00,87.1,71.5,29.97,ENE,68,4.0,8.0,60,0.00,,CLR,0.00,VWS V14.01,2013-10-04 18:15:00,
2013-10-04 14:20:00,87.4,71.3,29.96,ENE,68,5.0,12.0,59,0.00,,CLR,0.00,VWS V14.01,2013-10-04 18:20:00,
2013-10-04 14:25:00,87.5,71.4,29.96,ENE,68,5.0,8.0,59,0.00,,CLR,0.00,VWS V14.01,2013-10-04 18:25:00,
2013-10-04 14:30:00,87.2,71.6,29.96,NNE,22,3.0,7.0,60,0.00,,CLR,0.00,VWS V14.01,2013-10-04 18:30:00,
2013-10-04 14:35:00,87.4,71.3,29.96,ENE,68,4.0,9.0,59,0.00,,CLR,0.00,VWS V14.01,2013-10-04 18:35:00,
2013-10-04 14:40:00,87.3,72.2,29.96,South,180,0.0,2.0,61,0.00,,CLR,0.00,VWS V14.01,2013-10-04 18:40:00,
2013-10-04 14:45:00,87.9,71.8,29.96,East,90,4.0,9.0,59,0.00,,CLR,0.00,VWS V14.01,2013-10-04 18:45:00,
2013-10-04 14:50:00,87.7,72.1,29.95,ENE,68,4.0,9.0,60,0.00,,CLR,0.00,VWS V14.01,2013-10-04 18:50:00,
2013-10-04 14:55:00,88.1,72.5,29.95,ENE,68,3.0,5.0,60,0.00,,CLR,0.00,VWS V14.01,2013-10-04 18:55:00,
2013-10-04 15:00:00,88.4,72.8,29.95,NE,45,3.0,6.0,60,0.00,,CLR,0.00,VWS V14.01,2013-10-04 19:00:00,
2013-10-04 15:05:00,88.6,71.9,29.95,NNE,22,2.0,3.0,58,0.00,,CLR,0.00,VWS V14.01,2013-10-04 19:05:00,
2013-10-04 15:10:00,88.7,75.0,29.95,NW,315,3.0,6.0,64,0.00,,CLR,0.00,VWS V14.01,2013-10-04 19:10:00,
2013-10-04 15:15:00,88.0,75.7,29.95,West,270,3.0,6.0,67,0.00,,CLR,0.00,VWS V14.01,2013-10-04 19:15:00,
2013-10-04 15:20:00,86.9,75.9,29.95,WSW,248,2.0,6.0,70,0.00,,CLR,0.00,VWS V14.01,2013-10-04 19:20:00,
2013-10-04 15:25:00,86.8,74.5,29.94,West,270,4.0,9.0,67,0.00,,CLR,0.00,VWS V14.01,2013-10-04 19:25:00,
2013-10-04 15:30:00,86.1,74.3,29.94,WSW,248,4.0,8.0,68,0.00,,CLR,0.00,VWS V14.01,2013-10-04 19:30:00,
2013-10-04 15:35:00,86.0,74.2,29.94,WSW,248,3.0,6.0,68,0.00,,CLR,0.00,VWS V14.01,2013-10-04 19:35:00,
2013-10-04 15:40:00,86.3,74.5,29.94,West,270,2.0,6.0,68,0.00,,CLR,0.00,VWS V14.01,2013-10-04 19:40:00,
2013-10-04 15:45:00,86.4,75.0,29.94,WNW,292,3.0,7.0,69,0.00,,CLR,0.00,VWS V14.01,2013-10-04 19:45:00,
2013-10-04 15:50:00,86.1,75.2,29.94,West,270,3.0,7.0,70,0.00,,CLR,0.00,VWS V14.01,2013-10-04 19:50:00,
2013-10-04 15:55:00,85.4,75.3,29.94,West,270,4.0,8.0,72,0.00,,CLR,0.00,VWS V14.01,2013-10-04 19:55:00,
2013-10-04 16:00:00,84.9,74.9,29.94,West,270,5.0,8.0,72,0.00,,CLR,0.00,VWS V14.01,2013-10-04 20:00:00,
2013-10-04 16:05:00,84.5,74.9,29.94,West,270,3.0,8.0,73,0.00,,CLR,0.00,VWS V14.01,2013-10-04 20:05:00,
2013-10-04 16:10:00,84.4,74.8,29.94,WNW,292,5.0,10.0,73,0.00,,CLR,0.00,VWS V14.01,2013-10-04 20:10:00,
2013-10-04 16:15:00,84.3,75.1,29.94,West,270,3.0,6.0,74,0.00,,CLR,0.00,VWS V14.01,2013-10-04 20:15:00,
2013-10-04 16:20:00,84.3,75.1,29.94,West,270,3.0,7.0,74,0.00,,CLR,0.00,VWS V14.01,2013-10-04 20:20:00,
2013-10-04 16:25:00,84.3,75.5,29.94,West,270,4.0,7.0,75,0.00,,CLR,0.00,VWS V14.01,2013-10-04 20:25:00,
2013-10-04 16:30:00,84.1,75.3,29.94,WNW,292,3.0,6.0,75,0.00,,CLR,0.00,VWS V14.01,2013-10-04 20:30:00,
2013-10-04 16:35:00,84.1,75.3,29.94,West,270,2.0,7.0,75,0.00,,CLR,0.00,VWS V14.01,2013-10-04 20:35:00,
2013-10-04 16:40:00,83.9,75.1,29.94,West,270,4.0,7.0,75,0.00,,CLR,0.00,VWS V14.01,2013-10-04 20:40:00,
2013-10-04 16:45:00,83.7,75.3,29.94,West,270,4.0,8.0,76,0.00,,CLR,0.00,VWS V14.01,2013-10-04 20:45:00,
2013-10-04 16:50:00,83.5,75.5,29.94,West,270,4.0,8.0,77,0.00,,CLR,0.00,VWS V14.01,2013-10-04 20:50:00,
2013-10-04 16:55:00,83.4,75.4,29.94,West,270,4.0,6.0,77,0.00,,CLR,0.00,VWS V14.01,2013-10-04 20:55:00,
2013-10-04 17:00:00,83.4,75.4,29.94,West,270,3.0,5.0,77,0.00,,CLR,0.00,VWS V14.01,2013-10-04 21:00:00,
2013-10-04 17:05:00,83.5,75.1,29.94,West,270,3.0,6.0,76,0.00,,CLR,0.00,VWS V14.01,2013-10-04 21:05:00,
2013-10-04 17:10:00,83.5,75.1,29.94,West,270,3.0,5.0,76,0.00,,CLR,0.00,VWS V14.01,2013-10-04 21:10:00,
2013-10-04 17:15:00,83.6,75.6,29.94,West,270,3.0,6.0,77,0.00,,CLR,0.00,VWS V14.01,2013-10-04 21:15:00,
2013-10-04 17:20:00,83.6,75.2,29.94,West,270,3.0,5.0,76,0.00,,CLR,0.00,VWS V14.01,2013-10-04 21:20:00,
2013-10-04 17:25:00,83.6,75.2,29.94,WNW,292,3.0,6.0,76,0.00,,CLR,0.00,VWS V14.01,2013-10-04 21:25:00,
2013-10-04 17:30:00,83.6,75.2,29.94,West,270,3.0,6.0,76,0.00,,CLR,0.00,VWS V14.01,2013-10-04 21:30:00,
2013-10-04 17:35:00,83.4,75.4,29.94,West,270,3.0,6.0,77,0.00,,CLR,0.00,VWS V14.01,2013-10-04 21:35:00,
2013-10-04 17:40:00,83.5,75.5,29.94,WNW,292,3.0,6.0,77,0.00,,CLR,0.00,VWS V14.01,2013-10-04 21:40:00,
2013-10-04 17:45:00,83.5,75.5,29.94,West,270,3.0,7.0,77,0.00,,CLR,0.00,VWS V14.01,2013-10-04 21:45:00,
2013-10-04 17:50:00,83.4,75.8,29.94,West,270,3.0,5.0,78,0.00,,CLR,0.00,VWS V14.01,2013-10-04 21:50:00,
2013-10-04 17:55:00,83.4,75.8,29.94,WNW,292,2.0,6.0,78,0.00,,CLR,0.00,VWS V14.01,2013-10-04 21:55:00,
2013-10-04 18:00:00,83.3,75.7,29.94,West,270,3.0,6.0,78,0.00,,CLR,0.00,VWS V14.01,2013-10-04 22:00:00,
2013-10-04 18:05:00,83.2,75.6,29.94,West,270,3.0,7.0,78,0.00,,CLR,0.00,VWS V14.01,2013-10-04 22:05:00,
2013-10-04 18:10:00,83.2,75.6,29.94,West,270,2.0,5.0,78,0.00,,CLR,0.00,VWS V14.01,2013-10-04 22:10:00,
2013-10-04 18:15:00,83.2,75.6,29.94,West,270,2.0,5.0,78,0.00,,CLR,0.00,VWS V14.01,2013-10-04 22:15:00,
2013-10-04 18:20:00,83.2,75.6,29.95,West,270,1.0,4.0,78,0.00,,CLR,0.00,VWS V14.01,2013-10-04 22:20:00,
2013-10-04 18:25:00,83.2,75.6,29.95,West,270,2.0,4.0,78,0.00,,CLR,0.00,VWS V14.01,2013-10-04 22:25:00,
2013-10-04 18:30:00,83.2,75.6,29.94,West,270,1.0,3.0,78,0.00,,CLR,0.00,VWS V14.01,2013-10-04 22:30:00,
2013-10-04 18:35:00,83.2,75.6,29.94,West,270,2.0,4.0,78,0.00,,CLR,0.00,VWS V14.01,2013-10-04 22:35:00,
2013-10-04 18:40:00,83.2,75.6,29.94,West,270,1.0,3.0,78,0.00,,CLR,0.00,VWS V14.01,2013-10-04 22:40:00,
2013-10-04 18:45:00,83.2,75.6,29.94,West,270,0.0,3.0,78,0.00,,CLR,0.00,VWS V14.01,2013-10-04 22:45:00,
2013-10-04 18:50:00,83.2,75.6,29.94,West,270,1.0,3.0,78,0.00,,CLR,0.00,VWS V14.01,2013-10-04 22:50:00,
2013-10-04 18:55:00,83.1,75.9,29.94,West,270,0.0,2.0,79,0.00,,CLR,0.00,VWS V14.01,2013-10-04 22:55:00,
2013-10-04 19:00:00,83.1,75.9,29.94,West,270,1.0,3.0,79,0.00,,CLR,0.00,VWS V14.01,2013-10-04 23:00:00,
2013-10-04 19:05:00,83.0,75.8,29.94,West,270,0.0,1.0,79,0.00,,CLR,0.00,VWS V14.01,2013-10-04 23:05:00,
2013-10-04 19:10:00,82.9,76.1,29.94,West,270,0.0,1.0,80,0.00,,CLR,0.00,VWS V14.01,2013-10-04 23:10:00,
2013-10-04 19:15:00,82.8,76.0,29.94,West,270,0.0,1.0,80,0.00,,CLR,0.00,VWS V14.01,2013-10-04 23:15:00,
2013-10-04 19:20:00,82.7,75.9,29.94,WSW,248,0.0,1.0,80,0.00,,CLR,0.00,VWS V14.01,2013-10-04 23:20:00,
2013-10-04 19:25:00,82.7,76.3,29.94,West,270,1.0,2.0,81,0.00,,CLR,0.00,VWS V14.01,2013-10-04 23:25:00,
2013-10-04 19:30:00,82.6,76.2,29.94,West,270,0.0,2.0,81,0.00,,CLR,0.00,VWS V14.01,2013-10-04 23:30:00,
2013-10-04 19:35:00,82.6,76.2,29.94,West,270,1.0,2.0,81,0.00,,CLR,0.00,VWS V14.01,2013-10-04 23:35:00,
2013-10-04 19:47:00,82.5,76.4,29.94,West,270,0.0,1.0,82,0.00,,CLR,0.00,VWS V14.01,2013-10-04 23:47:00,
2013-10-04 19:48:00,82.4,76.4,29.94,WSW,255,0.0,0.0,82,0.00,,CLR,0.00,VWS V14.01,2013-10-04 23:48:00,
2013-10-04 19:52:00,82.3,76.3,29.94,WSW,255,0.0,0.0,82,0.00,,CLR,0.00,VWS V14.01,2013-10-04 23:52:00,
2013-10-04 19:53:00,82.3,76.3,29.94,WSW,255,0.0,0.0,82,0.00,,CLR,0.00,VWS V14.01,2013-10-04 23:53:00,
2013-10-04 19:57:00,82.3,76.3,29.94,WSW,255,0.0,0.0,82,0.00,,CLR,0.00,VWS V14.01,2013-10-04 23:57:00,
2013-10-04 19:58:00,82.2,76.2,29.94,WSW,255,0.0,0.0,82,0.00,,CLR,0.00,VWS V14.01,2013-10-04 23:58:00,
2013-10-04 20:02:00,82.0,76.0,29.94,WSW,255,0.0,0.0,82,0.00,,CLR,0.00,VWS V14.01,2013-10-05 00:02:00,
2013-10-04 20:03:00,82.0,76.0,29.94,WSW,255,0.0,0.0,82,0.00,,CLR,0.00,VWS V14.01,2013-10-05 00:03:00,
2013-10-04 20:07:00,81.7,76.0,29.95,WSW,255,0.0,0.0,83,0.00,,CLR,0.00,VWS V14.01,2013-10-05 00:07:00,
2013-10-04 20:08:00,81.7,76.0,29.95,WSW,255,0.0,0.0,83,0.00,,CLR,0.00,VWS V14.01,2013-10-05 00:08:00,
2013-10-04 20:09:00,81.7,76.0,29.95,WSW,255,0.0,0.0,83,0.00,,CLR,0.00,VWS V14.01,2013-10-05 00:09:00,
2013-10-04 20:12:00,81.5,75.8,29.95,NE,42,2.0,2.0,83,0.00,,CLR,0.00,VWS V14.01,2013-10-05 00:12:00,
2013-10-04 20:13:00,81.5,75.8,29.95,NE,47,2.0,2.0,83,0.00,,CLR,0.00,VWS V14.01,2013-10-05 00:13:00,
2013-10-04 20:14:00,81.4,75.7,29.95,NE,47,0.0,2.0,83,0.00,,CLR,0.00,VWS V14.01,2013-10-05 00:14:00,
2013-10-04 20:18:00,81.3,75.7,29.95,ENE,68,0.0,2.0,83,0.00,,CLR,0.00,VWS V14.01,2013-10-05 00:18:00,
2013-10-04 20:19:00,81.2,75.9,29.95,ENE,68,0.0,2.0,84,0.00,,CLR,0.00,VWS V14.01,2013-10-05 00:19:00,
2013-10-04 20:23:00,81.2,75.9,29.95,ENE,68,1.0,1.0,84,0.00,,CLR,0.00,VWS V14.01,2013-10-05 00:23:00,
2013-10-04 20:24:00,81.2,75.9,29.95,ENE,68,0.0,1.0,84,0.00,,CLR,0.00,VWS V14.01,2013-10-05 00:24:00,
2013-10-04 20:25:00,81.2,75.9,29.95,ENE,68,0.0,1.0,84,0.00,,CLR,0.00,VWS V14.01,2013-10-05 00:25:00,
2013-10-04 20:28:00,81.1,75.4,29.95,ENE,68,0.0,1.0,83,0.00,,CLR,0.00,VWS V14.01,2013-10-05 00:28:00,
2013-10-04 20:29:00,81.2,75.6,29.95,ENE,68,0.0,1.0,83,0.00,,CLR,0.00,VWS V14.01,2013-10-05 00:29:00,
2013-10-04 20:30:00,81.2,75.6,29.95,ENE,68,0.0,1.0,83,0.00,,CLR,0.00,VWS V14.01,2013-10-05 00:30:00,
2013-10-04 20:33:00,81.2,75.2,29.95,ENE,68,0.0,0.0,82,0.00,,CLR,0.00,VWS V14.01,2013-10-05 00:33:00,
2013-10-04 20:34:00,81.3,75.3,29.95,ENE,68,0.0,0.0,82,0.00,,CLR,0.00,VWS V14.01,2013-10-05 00:34:00,
2013-10-04 20:35:00,81.3,74.9,29.95,ENE,68,1.0,2.0,81,0.00,,CLR,0.00,VWS V14.01,2013-10-05 00:35:00,
2013-10-04 20:38:00,81.2,74.8,29.95,ENE,65,0.0,3.0,81,0.00,,CLR,0.00,VWS V14.01,2013-10-05 00:38:00,
2013-10-04 20:39:00,81.2,74.8,29.95,ENE,65,1.0,3.0,81,0.00,,CLR,0.00,VWS V14.01,2013-10-05 00:39:00,
2013-10-04 20:40:00,81.2,74.8,29.96,ENE,65,1.0,3.0,81,0.00,,CLR,0.00,VWS V14.01,2013-10-05 00:40:00,
2013-10-04 20:44:00,81.3,74.2,29.96,ENE,65,1.0,2.0,79,0.00,,CLR,0.00,VWS V14.01,2013-10-05 00:44:00,
2013-10-04 20:45:00,81.3,74.2,29.96,ENE,65,0.0,2.0,79,0.00,,CLR,0.00,VWS V14.01,2013-10-05 00:45:00,
2013-10-04 20:49:00,81.4,73.9,29.96,ENE,65,1.0,3.0,78,0.00,,CLR,0.00,VWS V14.01,2013-10-05 00:49:00,
2013-10-04 20:50:00,81.4,73.5,29.96,ENE,59,2.0,3.0,77,0.00,,CLR,0.00,VWS V14.01,2013-10-05 00:50:00,
2013-10-04 20:54:00,81.5,72.8,29.96,ENE,69,1.0,2.0,75,0.00,,CLR,0.00,VWS V14.01,2013-10-05 00:54:00,
2013-10-04 20:55:00,81.6,72.9,29.96,ENE,70,1.0,2.0,75,0.00,,CLR,0.00,VWS V14.01,2013-10-05 00:55:00,
2013-10-04 20:56:00,81.6,72.9,29.96,ENE,68,1.0,2.0,75,0.00,,CLR,0.00,VWS V14.01,2013-10-05 00:56:00,
2013-10-04 20:59:00,81.6,72.5,29.96,NE,40,2.0,3.0,74,0.00,,CLR,0.00,VWS V14.01,2013-10-05 00:59:00,
2013-10-04 21:00:00,81.7,72.6,29.96,NE,46,1.0,3.0,74,0.00,,CLR,0.00,VWS V14.01,2013-10-05 01:00:00,
2013-10-04 21:01:00,81.6,72.1,29.96,ENE,60,2.0,2.0,73,0.00,,CLR,0.00,VWS V14.01,2013-10-05 01:01:00,
2013-10-04 21:04:00,81.7,72.2,29.96,ENE,60,1.0,2.0,73,0.00,,CLR,0.00,VWS V14.01,2013-10-05 01:04:00,
2013-10-04 21:05:00,81.7,72.2,29.96,ENE,58,1.0,2.0,73,0.00,,CLR,0.00,VWS V14.01,2013-10-05 01:05:00,
2013-10-04 21:06:00,81.7,72.2,29.96,ENE,58,1.0,1.0,73,0.00,,CLR,0.00,VWS V14.01,2013-10-05 01:06:00,
2013-10-04 21:09:00,81.7,72.2,29.97,ENE,58,2.0,2.0,73,0.00,,CLR,0.00,VWS V14.01,2013-10-05 01:09:00,
2013-10-04 21:10:00,81.7,71.8,29.97,ENE,58,2.0,2.0,72,0.00,,CLR,0.00,VWS V14.01,2013-10-05 01:10:00,
2013-10-04 21:11:00,81.7,71.8,29.97,ENE,58,1.0,2.0,72,0.00,,CLR,0.00,VWS V14.01,2013-10-05 01:11:00,
2013-10-04 21:14:00,81.7,72.2,29.97,ENE,58,1.0,2.0,73,0.00,,CLR,0.00,VWS V14.01,2013-10-05 01:14:00,
2013-10-04 21:15:00,81.6,72.1,29.97,ENE,58,1.0,2.0,73,0.00,,CLR,0.00,VWS V14.01,2013-10-05 01:15:00,
2013-10-04 21:16:00,81.6,72.1,29.97,ENE,58,1.0,1.0,73,0.00,,CLR,0.00,VWS V14.01,2013-10-05 01:16:00,
2013-10-04 21:19:00,81.5,72.4,29.97,ENE,58,1.0,2.0,74,0.00,,CLR,0.00,VWS V14.01,2013-10-05 01:19:00,
2013-10-04 21:20:00,81.5,72.4,29.97,ENE,58,1.0,2.0,74,0.00,,CLR,0.00,VWS V14.01,2013-10-05 01:20:00,
2013-10-04 21:21:00,81.4,72.3,29.97,ENE,58,1.0,1.0,74,0.00,,CLR,0.00,VWS V14.01,2013-10-05 01:21:00,
2013-10-04 21:22:00,81.4,72.3,29.97,NE,49,2.0,2.0,74,0.00,,CLR,0.00,VWS V14.01,2013-10-05 01:22:00,
2013-10-04 21:24:00,81.3,72.2,29.97,NE,49,1.0,3.0,74,0.00,,CLR,0.00,VWS V14.01,2013-10-05 01:24:00,
2013-10-04 21:25:00,81.2,72.1,29.97,NE,49,1.0,3.0,74,0.00,,CLR,0.00,VWS V14.01,2013-10-05 01:25:00,
2013-10-04 21:26:00,81.2,72.1,29.97,NE,48,1.0,2.0,74,0.00,,CLR,0.00,VWS V14.01,2013-10-05 01:26:00,
2013-10-04 21:27:00,81.2,72.1,29.97,NE,49,1.0,2.0,74,0.00,,CLR,0.00,VWS V14.01,2013-10-05 01:27:00,
2013-10-04 21:29:00,81.2,72.1,29.97,NE,49,1.0,2.0,74,0.00,,CLR,0.00,VWS V14.01,2013-10-05 01:29:00,
2013-10-04 21:30:00,81.1,72.0,29.97,NE,49,0.0,2.0,74,0.00,,CLR,0.00,VWS V14.01,2013-10-05 01:30:00,
2013-10-04 21:31:00,81.1,72.0,29.97,NE,49,1.0,2.0,74,0.00,,CLR,0.00,VWS V14.01,2013-10-05 01:31:00,
2013-10-04 21:33:00,81.0,71.9,29.97,NNE,32,2.0,2.0,74,0.00,,CLR,0.00,VWS V14.01,2013-10-05 01:33:00,
2013-10-04 21:34:00,81.0,72.3,29.97,NNE,32,1.0,2.0,75,0.00,,CLR,0.00,VWS V14.01,2013-10-05 01:34:00,
2013-10-04 21:35:00,81.0,72.3,29.97,NNE,31,0.0,2.0,75,0.00,,CLR,0.00,VWS V14.01,2013-10-05 01:35:00,
2013-10-04 21:36:00,81.0,72.3,29.97,NNE,32,1.0,1.0,75,0.00,,CLR,0.00,VWS V14.01,2013-10-05 01:36:00,
2013-10-04 21:38:00,81.0,72.3,29.97,NNE,32,1.0,2.0,75,0.00,,CLR,0.00,VWS V14.01,2013-10-05 01:38:00,
2013-10-04 21:40:00,80.9,72.2,29.97,NNE,32,1.0,2.0,75,0.00,,CLR,0.00,VWS V14.01,2013-10-05 01:40:00,
2013-10-04 21:42:00,80.9,72.2,29.97,NNE,31,1.0,2.0,75,0.00,,CLR,0.00,VWS V14.01,2013-10-05 01:42:00,
2013-10-04 21:43:00,80.8,72.1,29.97,NNE,31,1.0,2.0,75,0.00,,CLR,0.00,VWS V14.01,2013-10-05 01:43:00,
2013-10-04 21:45:00,80.8,72.1,29.98,NNE,31,1.0,2.0,75,0.00,,CLR,0.00,VWS V14.01,2013-10-05 01:45:00,
2013-10-04 21:46:00,80.8,72.1,29.98,NNE,32,1.0,2.0,75,0.00,,CLR,0.00,VWS V14.01,2013-10-05 01:46:00,
2013-10-04 21:47:00,80.7,72.0,29.98,NNE,32,1.0,2.0,75,0.00,,CLR,0.00,VWS V14.01,2013-10-05 01:47:00,
2013-10-04 21:48:00,80.7,72.0,29.98,NNE,32,1.0,2.0,75,0.00,,CLR,0.00,VWS V14.01,2013-10-05 01:48:00,
2013-10-04 21:50:00,80.7,72.4,29.98,NNE,31,0.0,2.0,76,0.00,,CLR,0.00,VWS V14.01,2013-10-05 01:50:00,
2013-10-04 21:51:00,80.7,72.4,29.98,NNE,31,1.0,2.0,76,0.00,,CLR,0.00,VWS V14.01,2013-10-05 01:51:00,
2013-10-04 21:52:00,80.6,71.9,29.98,NNE,32,2.0,2.0,75,0.00,,CLR,0.00,VWS V14.01,2013-10-05 01:52:00,
2013-10-04 21:53:00,80.6,71.9,29.98,NNE,31,2.0,2.0,75,0.00,,CLR,0.00,VWS V14.01,2013-10-05 01:53:00,
2013-10-04 21:55:00,80.5,72.2,29.98,NNE,31,0.0,2.0,76,0.00,,CLR,0.00,VWS V14.01,2013-10-05 01:55:00,
2013-10-04 21:56:00,80.5,72.2,29.98,NNE,31,1.0,2.0,76,0.00,,CLR,0.00,VWS V14.01,2013-10-05 01:56:00,
2013-10-04 21:57:00,80.5,72.2,29.98,NNE,31,0.0,2.0,76,0.00,,CLR,0.00,VWS V14.01,2013-10-05 01:57:00,
2013-10-04 21:58:00,80.5,72.2,29.98,NNE,31,1.0,2.0,76,0.00,,CLR,0.00,VWS V14.01,2013-10-05 01:58:00,
2013-10-04 22:00:00,80.4,72.2,29.98,NNE,31,1.0,2.0,76,0.00,,CLR,0.00,VWS V14.01,2013-10-05 02:00:00,
2013-10-04 22:01:00,80.4,72.2,29.98,NNE,32,1.0,2.0,76,0.00,,CLR,0.00,VWS V14.01,2013-10-05 02:01:00,
2013-10-04 22:03:00,80.4,72.2,29.98,NNE,32,1.0,2.0,76,0.00,,CLR,0.00,VWS V14.01,2013-10-05 02:03:00,
2013-10-04 22:05:00,80.3,72.1,29.98,ENE,59,2.0,2.0,76,0.00,,CLR,0.00,VWS V14.01,2013-10-05 02:05:00,
2013-10-04 22:06:00,80.3,72.1,29.98,ENE,60,1.0,2.0,76,0.00,,CLR,0.00,VWS V14.01,2013-10-05 02:06:00,
2013-10-04 22:08:00,80.3,72.1,29.98,ENE,60,0.0,2.0,76,0.00,,CLR,0.00,VWS V14.01,2013-10-05 02:08:00,
2013-10-04 22:09:00,80.3,72.1,29.98,ENE,60,1.0,2.0,76,0.00,,CLR,0.00,VWS V14.01,2013-10-05 02:09:00,
2013-10-04 22:10:00,80.3,72.1,29.98,ENE,60,1.0,2.0,76,0.00,,CLR,0.00,VWS V14.01,2013-10-05 02:10:00,
2013-10-04 22:11:00,80.3,72.1,29.98,ENE,60,1.0,1.0,76,0.00,,CLR,0.00,VWS V14.01,2013-10-05 02:11:00,
2013-10-04 22:14:00,80.2,71.9,29.99,ENE,60,1.0,2.0,76,0.00,,CLR,0.00,VWS V14.01,2013-10-05 02:14:00,
2013-10-04 22:15:00,80.2,71.9,29.99,ENE,60,1.0,2.0,76,0.00,,CLR,0.00,VWS V14.01,2013-10-05 02:15:00,
2013-10-04 22:16:00,80.1,71.9,29.99,ENE,60,1.0,2.0,76,0.00,,CLR,0.00,VWS V14.01,2013-10-05 02:16:00,
2013-10-04 22:19:00,80.1,71.9,29.99,ENE,60,1.0,2.0,76,0.00,,CLR,0.00,VWS V14.01,2013-10-05 02:19:00,
2013-10-04 22:20:00,80.1,71.9,29.99,ENE,72,2.0,3.0,76,0.00,,CLR,0.00,VWS V14.01,2013-10-05 02:20:00,
2013-10-04 22:21:00,80.1,71.9,29.99,ENE,73,3.0,3.0,76,0.00,,CLR,0.00,VWS V14.01,2013-10-05 02:21:00,
2013-10-04 22:24:00,80.0,71.8,29.99,ENE,78,2.0,3.0,76,0.00,,CLR,0.00,VWS V14.01,2013-10-05 02:24:00,
2013-10-04 22:26:00,79.9,71.7,29.99,East,79,5.0,7.0,76,0.00,,CLR,0.00,VWS V14.01,2013-10-05 02:26:00,
2013-10-04 22:27:00,79.9,71.3,29.99,ENE,58,2.0,5.0,75,0.00,,CLR,0.00,VWS V14.01,2013-10-05 02:27:00,
2013-10-04 22:29:00,80.0,71.4,29.99,ENE,73,3.0,5.0,75,0.00,,CLR,0.00,VWS V14.01,2013-10-05 02:29:00,
2013-10-04 22:31:00,80.0,71.4,29.99,ENE,77,3.0,5.0,75,0.00,,CLR,0.00,VWS V14.01,2013-10-05 02:31:00,
2013-10-04 22:32:00,80.1,71.5,29.99,East,82,4.0,4.0,75,0.00,,CLR,0.00,VWS V14.01,2013-10-05 02:32:00,
2013-10-04 22:34:00,80.1,71.1,29.99,ENE,60,3.0,6.0,74,0.00,,CLR,0.00,VWS V14.01,2013-10-05 02:34:00,
2013-10-04 22:36:00,80.2,71.2,30.00,ENE,59,6.0,6.0,74,0.00,,CLR,0.00,VWS V14.01,2013-10-05 02:36:00,
2013-10-04 22:37:00,80.2,71.2,30.00,East,79,3.0,6.0,74,0.00,,CLR,0.00,VWS V14.01,2013-10-05 02:37:00,
2013-10-04 22:39:00,80.3,71.3,30.00,ENE,78,5.0,6.0,74,0.00,,CLR,0.00,VWS V14.01,2013-10-05 02:39:00,
2013-10-04 22:41:00,80.3,71.3,30.00,ENE,64,3.0,5.0,74,0.00,,CLR,0.00,VWS V14.01,2013-10-05 02:41:00,
2013-10-04 22:42:00,80.4,71.4,30.00,ENE,74,2.0,5.0,74,0.00,,CLR,0.00,VWS V14.01,2013-10-05 02:42:00,
2013-10-04 22:44:00,80.5,71.5,30.00,NE,34,5.0,9.0,74,0.00,,CLR,0.00,VWS V14.01,2013-10-05 02:44:00,
2013-10-04 22:45:00,80.5,71.5,30.00,ENE,63,4.0,9.0,74,0.00,,CLR,0.00,VWS V14.01,2013-10-05 02:45:00,
2013-10-04 22:46:00,80.5,71.5,30.00,NE,42,5.0,6.0,74,0.00,,CLR,0.00,VWS V14.01,2013-10-05 02:46:00,
2013-10-04 22:47:00,80.6,71.6,30.00,ENE,68,3.0,6.0,74,0.00,,CLR,0.00,VWS V14.01,2013-10-05 02:47:00,
2013-10-04 22:49:00,80.6,71.6,30.00,ENE,71,4.0,7.0,74,0.00,,CLR,0.00,VWS V14.01,2013-10-05 02:49:00,
2013-10-04 22:50:00,80.6,71.6,30.00,NNE,27,3.0,7.0,74,0.00,,CLR,0.00,VWS V14.01,2013-10-05 02:50:00,
2013-10-04 22:51:00,80.6,71.6,30.00,ENE,64,6.0,7.0,74,0.00,,CLR,0.00,VWS V14.01,2013-10-05 02:51:00,
2013-10-04 22:52:00,80.6,71.6,30.00,East,89,7.0,7.0,74,0.00,,CLR,0.00,VWS V14.01,2013-10-05 02:52:00,
2013-10-04 22:54:00,80.6,71.6,30.00,East,82,3.0,7.0,74,0.00,,CLR,0.00,VWS V14.01,2013-10-05 02:54:00,
2013-10-04 22:55:00,80.6,71.6,30.00,ENE,70,4.0,7.0,74,0.00,,CLR,0.00,VWS V14.01,2013-10-05 02:55:00,
2013-10-04 22:56:00,80.6,71.6,30.00,East,100,5.0,7.0,74,0.00,,CLR,0.00,VWS V14.01,2013-10-05 02:56:00,
2013-10-04 22:57:00,80.6,71.6,30.00,East,84,3.0,7.0,74,0.00,,CLR,0.00,VWS V14.01,2013-10-05 02:57:00,
2013-10-04 22:58:00,80.6,71.6,30.00,NNE,30,3.0,7.0,74,0.00,,CLR,0.00,VWS V14.01,2013-10-05 02:58:00,
2013-10-04 23:00:00,80.6,71.6,30.00,East,86,3.0,7.0,74,0.00,,BKN055,0.00,VWS V14.01,2013-10-05 03:00:00,
2013-10-04 23:01:00,80.6,71.6,30.00,NE,53,2.0,4.0,74,0.00,,BKN055,0.00,VWS V14.01,2013-10-05 03:01:00,
2013-10-04 23:02:00,80.6,71.6,30.00,NE,55,2.0,4.0,74,0.00,,BKN055,0.00,VWS V14.01,2013-10-05 03:02:00,
2013-10-04 23:03:00,80.6,71.6,30.00,ENE,57,2.0,4.0,74,0.00,,BKN055,0.00,VWS V14.01,2013-10-05 03:03:00,
2013-10-04 23:05:00,80.5,71.5,30.00,ENE,65,2.0,6.0,74,0.00,,BKN055,0.00,VWS V14.01,2013-10-05 03:05:00,
2013-10-04 23:06:00,80.5,71.5,30.00,ENE,59,3.0,4.0,74,0.00,,BKN055,0.00,VWS V14.01,2013-10-05 03:06:00,
2013-10-04 23:07:00,80.5,71.5,30.00,ENE,68,3.0,4.0,74,0.00,,BKN055,0.00,VWS V14.01,2013-10-05 03:07:00,
2013-10-04 23:08:00,80.5,71.5,30.00,ENE,66,3.0,4.0,74,0.00,,BKN055,0.00,VWS V14.01,2013-10-05 03:08:00,
2013-10-04 23:10:00,80.4,71.8,30.00,NNE,25,4.0,6.0,75,0.00,,BKN055,0.00,VWS V14.01,2013-10-05 03:10:00,
2013-10-04 23:11:00,80.4,71.8,30.00,NE,47,2.0,7.0,75,0.00,,BKN055,0.00,VWS V14.01,2013-10-05 03:11:00,
2013-10-04 23:12:00,80.4,71.8,30.00,East,84,3.0,7.0,75,0.00,,BKN055,0.00,VWS V14.01,2013-10-05 03:12:00,
2013-10-04 23:13:00,80.3,71.7,30.00,East,91,2.0,7.0,75,0.00,,BKN055,0.00,VWS V14.01,2013-10-05 03:13:00,
2013-10-04 23:14:00,80.3,71.7,30.00,East,88,3.0,7.0,75,0.00,,BKN055,0.00,VWS V14.01,2013-10-05 03:14:00,
2013-10-04 23:15:00,80.3,71.7,30.00,NE,46,2.0,7.0,75,0.00,,BKN055,0.00,VWS V14.01,2013-10-05 03:15:00,
2013-10-04 23:17:00,80.3,71.7,30.00,ENE,65,2.0,3.0,75,0.00,,BKN055,0.00,VWS V14.01,2013-10-05 03:17:00,
2013-10-04 23:18:00,80.2,71.6,30.00,ENE,57,5.0,6.0,75,0.00,,BKN055,0.00,VWS V14.01,2013-10-05 03:18:00,
2013-10-04 23:19:00,80.2,71.6,30.00,ENE,75,4.0,6.0,75,0.00,,BKN055,0.00,VWS V14.01,2013-10-05 03:19:00,
2013-10-04 23:20:00,80.2,71.6,30.00,ENE,70,3.0,6.0,75,0.00,,BKN055,0.00,VWS V14.01,2013-10-05 03:20:00,
2013-10-04 23:21:00,80.2,71.6,30.00,ENE,60,4.0,6.0,75,0.00,,BKN055,0.00,VWS V14.01,2013-10-05 03:21:00,
2013-10-04 23:22:00,80.2,71.6,30.01,East,84,3.0,4.0,75,0.00,,BKN055,0.00,VWS V14.01,2013-10-05 03:22:00,
2013-10-04 23:24:00,80.1,71.5,30.00,East,82,4.0,4.0,75,0.00,,BKN055,0.00,VWS V14.01,2013-10-05 03:24:00,
2013-10-04 23:25:00,80.1,71.5,30.00,ENE,78,3.0,4.0,75,0.00,,BKN055,0.00,VWS V14.01,2013-10-05 03:25:00,
2013-10-04 23:26:00,80.1,71.9,30.01,ENE,73,1.0,1.0,76,0.00,,BKN055,0.00,VWS V14.01,2013-10-05 03:26:00,
2013-10-04 23:27:00,80.0,71.8,30.01,East,84,2.0,2.0,76,0.00,,BKN055,0.00,VWS V14.01,2013-10-05 03:27:00,
2013-10-04 23:29:00,79.9,71.7,30.00,East,84,2.0,7.0,76,0.00,,BKN055,0.00,VWS V14.01,2013-10-05 03:29:00,
2013-10-04 23:30:00,79.9,71.7,30.00,ENE,68,2.0,7.0,76,0.00,,BKN055,0.00,VWS V14.01,2013-10-05 03:30:00,
2013-10-04 23:31:00,79.9,71.7,30.01,East,81,5.0,5.0,76,0.00,,BKN055,0.00,VWS V14.01,2013-10-05 03:31:00,
2013-10-04 23:32:00,79.9,71.7,30.01,NE,49,4.0,6.0,76,0.00,,BKN055,0.00,VWS V14.01,2013-10-05 03:32:00,
2013-10-04 23:33:00,79.8,71.6,30.01,NE,53,4.0,6.0,76,0.00,,BKN055,0.00,VWS V14.01,2013-10-05 03:33:00,
2013-10-04 23:34:00,79.8,71.6,30.01,ENE,75,4.0,6.0,76,0.00,,BKN055,0.00,VWS V14.01,2013-10-05 03:34:00,
2013-10-04 23:35:00,79.8,71.6,30.01,ENE,68,3.0,6.0,76,0.00,,BKN055,0.00,VWS V14.01,2013-10-05 03:35:00,
2013-10-04 23:36:00,79.8,71.9,30.01,ENE,73,3.0,3.0,77,0.00,,BKN055,0.00,VWS V14.01,2013-10-05 03:36:00,
2013-10-04 23:37:00,79.8,71.9,30.01,ENE,67,5.0,5.0,77,0.00,,BKN055,0.00,VWS V14.01,2013-10-05 03:37:00,
2013-10-04 23:38:00,79.7,71.9,30.01,ENE,75,4.0,5.0,77,0.00,,BKN055,0.00,VWS V14.01,2013-10-05 03:38:00,
2013-10-04 23:40:00,79.7,71.9,30.01,NE,46,2.0,5.0,77,0.00,,BKN055,0.00,VWS V14.01,2013-10-05 03:40:00,
2013-10-04 23:41:00,79.6,71.8,30.01,ENE,72,6.0,6.0,77,0.00,,BKN055,0.00,VWS V14.01,2013-10-05 03:41:00,
2013-10-04 23:42:00,79.6,71.8,30.01,ENE,60,6.0,6.0,77,0.00,,BKN055,0.00,VWS V14.01,2013-10-05 03:42:00,
2013-10-04 23:45:00,79.6,71.8,30.01,East,82,4.0,7.0,77,0.00,,BKN055,0.00,VWS V14.01,2013-10-05 03:45:00,
2013-10-04 23:46:00,79.5,71.7,30.01,East,87,4.0,5.0,77,0.00,,BKN055,0.00,VWS V14.01,2013-10-05 03:46:00,
2013-10-04 23:47:00,79.5,71.7,30.01,East,81,6.0,6.0,77,0.00,,BKN055,0.00,VWS V14.01,2013-10-05 03:47:00,
2013-10-04 23:50:00,79.4,71.6,30.01,ENE,72,6.0,8.0,77,0.00,,BKN055,0.00,VWS V14.01,2013-10-05 03:50:00,
2013-10-04 23:52:00,79.4,71.6,30.01,East,94,3.0,7.0,77,0.00,,BKN055,0.00,VWS V14.01,2013-10-05 03:52:00,
2013-10-04 23:55:00,79.3,71.8,30.01,East,84,5.0,9.0,78,0.00,,BKN055,0.00,VWS V14.01,2013-10-05 03:55:00,
2013-10-04 23:57:00,79.2,71.8,30.00,ENE,65,5.0,9.0,78,0.00,,BKN055,0.00,VWS V14.01,2013-10-05 03:57:00,